<?xml version="1.0" encoding="UTF-8" standalone="no" ?>
<gpx xmlns="http://www.topografix.com/GPX/1/1" xmlns:xsi="http://www.w3.org/2001/XMLSchema-instance" xsi:schemaLocation="http://www.topografix.com/GPX/1/1 http://www.topografix.com/GPX/1/1/gpx.xsd" version="1.1" creator="VisuGPX - https://www.visugpx.com">
  <metadata>
    <name>Le pays isérois autour de Notre-Dame-de-l'Osier</name>
  </metadata>
  <wpt lat="45.23785" lon="5.40653">
    <ele>419</ele>
    <name><![CDATA[Parc du village ND de l'Osier]]></name>
  </wpt>
  <wpt lat="45.23767" lon="5.40631">
    <ele>419</ele>
    <name><![CDATA[Maison de retraite]]></name>
  </wpt>
  <wpt lat="45.23812" lon="5.41078">
    <ele>425</ele>
    <name><![CDATA[Route de la Combe Rougey]]></name>
  </wpt>
  <wpt lat="45.2336" lon="5.41806">
    <ele>467</ele>
    <name><![CDATA[Route de Bergérandière]]></name>
  </wpt>
  <wpt lat="45.22901" lon="5.41826">
    <ele>496</ele>
    <name><![CDATA[L'Epinouse]]></name>
  </wpt>
  <wpt lat="45.23454" lon="5.42484">
    <ele>521</ele>
    <name><![CDATA[Bergérandière]]></name>
  </wpt>
  <wpt lat="45.23485" lon="5.43347">
    <ele>487</ele>
    <name><![CDATA[Le Trémollet]]></name>
  </wpt>
  <wpt lat="45.24474" lon="5.43945">
    <ele>350</ele>
    <name><![CDATA[Chantesse]]></name>
  </wpt>
  <wpt lat="45.25135" lon="5.43587">
    <ele>368</ele>
    <name><![CDATA[Les Sablières]]></name>
  </wpt>
  <wpt lat="45.24842" lon="5.42091">
    <ele>408</ele>
    <name><![CDATA[Le Rif]]></name>
  </wpt>
  <wpt lat="45.25223" lon="5.41722">
    <ele>500</ele>
    <name><![CDATA[Grand Champ]]></name>
  </wpt>
  <wpt lat="45.25169" lon="5.41089">
    <ele>500</ele>
    <name><![CDATA[Carrefour GRP]]></name>
  </wpt>
  <wpt lat="45.24566" lon="5.40295">
    <ele>495</ele>
    <name><![CDATA[Col de Cassière]]></name>
  </wpt>
  <wpt lat="45.24027" lon="5.39166">
    <ele>482</ele>
    <name><![CDATA[Combe Noire]]></name>
  </wpt>
  <wpt lat="45.23279" lon="5.3995">
    <ele>410</ele>
    <name><![CDATA[Les Endeyès]]></name>
  </wpt>
  <wpt lat="45.23515" lon="5.40184">
    <ele>367</ele>
    <name><![CDATA[Sentier à droite de la  D201C]]></name>
  </wpt>
  <wpt lat="45.23486" lon="5.40365">
    <ele>401</ele>
    <name><![CDATA[Cimetière]]></name>
  </wpt>
  <wpt lat="45.23787" lon="5.40652">
    <ele>419</ele>
    <name><![CDATA[Parc ND de l'Osier]]></name>
  </wpt>
  <trk>
    <name><![CDATA[Le pays isérois autour de Notre-Dame-de-l'Osier]]></name>
    <trkseg>
      <trkpt lat="45.23785" lon="5.40653">
        <ele>419</ele>
        <time>2018-04-21T09:20:37+02:00</time>
      </trkpt>
      <trkpt lat="45.23767" lon="5.40631">
        <ele>419</ele>
        <time>2020-08-30T19:18:06+02:00</time>
      </trkpt>
      <trkpt lat="45.2381" lon="5.40546">
        <ele>418</ele>
        <time>2018-04-21T09:21:16+02:00</time>
      </trkpt>
      <trkpt lat="45.23828" lon="5.40519">
        <ele>417</ele>
        <time>2018-04-21T09:23:39+02:00</time>
      </trkpt>
      <trkpt lat="45.23851" lon="5.40546">
        <ele>416</ele>
        <time>2020-08-30T19:18:21+02:00</time>
      </trkpt>
      <trkpt lat="45.23856" lon="5.40563">
        <ele>417</ele>
        <time>2018-04-21T09:32:38+02:00</time>
      </trkpt>
      <trkpt lat="45.23791" lon="5.40746">
        <ele>421</ele>
        <time>2018-04-21T09:35:19+02:00</time>
      </trkpt>
      <trkpt lat="45.23801" lon="5.40763">
        <ele>421</ele>
        <time>2018-04-21T09:35:34+02:00</time>
      </trkpt>
      <trkpt lat="45.23812" lon="5.40781">
        <ele>420</ele>
        <time>2018-04-21T09:35:49+02:00</time>
      </trkpt>
      <trkpt lat="45.23819" lon="5.40809">
        <ele>420</ele>
        <time>2018-04-21T09:36:05+02:00</time>
      </trkpt>
      <trkpt lat="45.2382" lon="5.40819">
        <ele>420</ele>
        <time>2018-04-21T09:36:10+02:00</time>
      </trkpt>
      <trkpt lat="45.23828" lon="5.40842">
        <ele>420</ele>
        <time>2018-04-21T09:36:26+02:00</time>
      </trkpt>
      <trkpt lat="45.23828" lon="5.40849">
        <ele>420</ele>
        <time>2018-04-21T09:36:30+02:00</time>
      </trkpt>
      <trkpt lat="45.23831" lon="5.40879">
        <ele>421</ele>
        <time>2018-04-21T09:36:45+02:00</time>
      </trkpt>
      <trkpt lat="45.23832" lon="5.40884">
        <ele>421</ele>
        <time>2018-04-21T09:36:48+02:00</time>
      </trkpt>
      <trkpt lat="45.23832" lon="5.40918">
        <ele>422</ele>
        <time>2018-04-21T09:37:06+02:00</time>
      </trkpt>
      <trkpt lat="45.2383" lon="5.4095">
        <ele>424</ele>
        <time>2018-04-21T09:37:23+02:00</time>
      </trkpt>
      <trkpt lat="45.23829" lon="5.40968">
        <ele>424</ele>
        <time>2018-04-21T09:37:37+02:00</time>
      </trkpt>
      <trkpt lat="45.23828" lon="5.40991">
        <ele>426</ele>
        <time>2018-04-21T09:37:52+02:00</time>
      </trkpt>
      <trkpt lat="45.23824" lon="5.41022">
        <ele>425</ele>
        <time>2018-04-21T09:38:09+02:00</time>
      </trkpt>
      <trkpt lat="45.2382" lon="5.41053">
        <ele>425</ele>
        <time>2018-04-21T09:38:25+02:00</time>
      </trkpt>
      <trkpt lat="45.23812" lon="5.41078">
        <ele>425</ele>
        <time>2018-04-21T09:38:42+02:00</time>
      </trkpt>
      <trkpt lat="45.23797" lon="5.41069">
        <ele>425</ele>
        <time>2018-04-21T09:39:07+02:00</time>
      </trkpt>
      <trkpt lat="45.23776" lon="5.41055">
        <ele>426</ele>
        <time>2018-04-21T09:39:26+02:00</time>
      </trkpt>
      <trkpt lat="45.23768" lon="5.41048">
        <ele>426</ele>
        <time>2018-04-21T09:39:42+02:00</time>
      </trkpt>
      <trkpt lat="45.23748" lon="5.41038">
        <ele>426</ele>
        <time>2018-04-21T09:39:59+02:00</time>
      </trkpt>
      <trkpt lat="45.23728" lon="5.41033">
        <ele>426</ele>
        <time>2018-04-21T09:40:17+02:00</time>
      </trkpt>
      <trkpt lat="45.23714" lon="5.41025">
        <ele>426</ele>
        <time>2018-04-21T09:40:31+02:00</time>
      </trkpt>
      <trkpt lat="45.23703" lon="5.41017">
        <ele>426</ele>
        <time>2018-04-21T09:40:53+02:00</time>
      </trkpt>
      <trkpt lat="45.2368" lon="5.41">
        <ele>427</ele>
        <time>2018-04-21T09:41:13+02:00</time>
      </trkpt>
      <trkpt lat="45.23658" lon="5.4098">
        <ele>427</ele>
        <time>2018-04-21T09:41:31+02:00</time>
      </trkpt>
      <trkpt lat="45.23639" lon="5.40966">
        <ele>427</ele>
        <time>2018-04-21T09:41:48+02:00</time>
      </trkpt>
      <trkpt lat="45.23627" lon="5.40955">
        <ele>428</ele>
        <time>2018-04-21T09:42:03+02:00</time>
      </trkpt>
      <trkpt lat="45.23616" lon="5.40923">
        <ele>428</ele>
        <time>2018-04-21T09:42:21+02:00</time>
      </trkpt>
      <trkpt lat="45.23604" lon="5.40907">
        <ele>429</ele>
        <time>2018-04-21T09:42:37+02:00</time>
      </trkpt>
      <trkpt lat="45.2359" lon="5.40894">
        <ele>430</ele>
        <time>2018-04-21T09:42:52+02:00</time>
      </trkpt>
      <trkpt lat="45.23575" lon="5.40878">
        <ele>430</ele>
        <time>2018-04-21T09:43:06+02:00</time>
      </trkpt>
      <trkpt lat="45.23561" lon="5.40863">
        <ele>430</ele>
        <time>2018-04-21T09:43:23+02:00</time>
      </trkpt>
      <trkpt lat="45.23548" lon="5.40857">
        <ele>430</ele>
        <time>2018-04-21T09:43:39+02:00</time>
      </trkpt>
      <trkpt lat="45.23531" lon="5.40837">
        <ele>429</ele>
        <time>2018-04-21T09:43:56+02:00</time>
      </trkpt>
      <trkpt lat="45.23512" lon="5.40813">
        <ele>430</ele>
        <time>2018-04-21T09:44:14+02:00</time>
      </trkpt>
      <trkpt lat="45.23499" lon="5.40792">
        <ele>431</ele>
        <time>2018-04-21T09:44:29+02:00</time>
      </trkpt>
      <trkpt lat="45.23483" lon="5.40776">
        <ele>431</ele>
        <time>2018-04-21T09:44:46+02:00</time>
      </trkpt>
      <trkpt lat="45.23473" lon="5.40763">
        <ele>432</ele>
        <time>2018-04-21T09:44:58+02:00</time>
      </trkpt>
      <trkpt lat="45.23458" lon="5.40742">
        <ele>432</ele>
        <time>2018-04-21T09:45:14+02:00</time>
      </trkpt>
      <trkpt lat="45.23442" lon="5.4074">
        <ele>433</ele>
        <time>2018-04-21T09:45:30+02:00</time>
      </trkpt>
      <trkpt lat="45.23424" lon="5.40761">
        <ele>433</ele>
        <time>2018-04-21T09:45:49+02:00</time>
      </trkpt>
      <trkpt lat="45.23408" lon="5.40779">
        <ele>432</ele>
        <time>2018-04-21T09:46:07+02:00</time>
      </trkpt>
      <trkpt lat="45.234" lon="5.40785">
        <ele>432</ele>
        <time>2018-04-21T09:46:14+02:00</time>
      </trkpt>
      <trkpt lat="45.23383" lon="5.40801">
        <ele>431</ele>
        <time>2018-04-21T09:46:31+02:00</time>
      </trkpt>
      <trkpt lat="45.23369" lon="5.40817">
        <ele>431</ele>
        <time>2018-04-21T09:46:47+02:00</time>
      </trkpt>
      <trkpt lat="45.23349" lon="5.40849">
        <ele>431</ele>
        <time>2018-04-21T09:47:06+02:00</time>
      </trkpt>
      <trkpt lat="45.23341" lon="5.40873">
        <ele>432</ele>
        <time>2018-04-21T09:47:23+02:00</time>
      </trkpt>
      <trkpt lat="45.23331" lon="5.40898">
        <ele>433</ele>
        <time>2018-04-21T09:47:39+02:00</time>
      </trkpt>
      <trkpt lat="45.23326" lon="5.4091">
        <ele>433</ele>
        <time>2018-04-21T09:47:48+02:00</time>
      </trkpt>
      <trkpt lat="45.23318" lon="5.40929">
        <ele>434</ele>
        <time>2018-04-21T09:48:04+02:00</time>
      </trkpt>
      <trkpt lat="45.23309" lon="5.40945">
        <ele>435</ele>
        <time>2018-04-21T09:48:20+02:00</time>
      </trkpt>
      <trkpt lat="45.23304" lon="5.40965">
        <ele>436</ele>
        <time>2018-04-21T09:49:11+02:00</time>
      </trkpt>
      <trkpt lat="45.23302" lon="5.40978">
        <ele>436</ele>
        <time>2018-04-21T09:49:37+02:00</time>
      </trkpt>
      <trkpt lat="45.233" lon="5.41007">
        <ele>437</ele>
        <time>2018-04-21T09:49:55+02:00</time>
      </trkpt>
      <trkpt lat="45.23298" lon="5.4102">
        <ele>438</ele>
        <time>2018-04-21T09:50:12+02:00</time>
      </trkpt>
      <trkpt lat="45.23282" lon="5.41037">
        <ele>439</ele>
        <time>2018-04-21T09:50:28+02:00</time>
      </trkpt>
      <trkpt lat="45.23263" lon="5.41049">
        <ele>440</ele>
        <time>2018-04-21T09:50:47+02:00</time>
      </trkpt>
      <trkpt lat="45.23241" lon="5.41058">
        <ele>440</ele>
        <time>2018-04-21T09:51:07+02:00</time>
      </trkpt>
      <trkpt lat="45.23241" lon="5.41067">
        <ele>440</ele>
        <time>2018-04-21T09:51:13+02:00</time>
      </trkpt>
      <trkpt lat="45.23245" lon="5.41091">
        <ele>441</ele>
        <time>2018-04-21T09:51:30+02:00</time>
      </trkpt>
      <trkpt lat="45.23248" lon="5.41111">
        <ele>442</ele>
        <time>2018-04-21T09:51:43+02:00</time>
      </trkpt>
      <trkpt lat="45.2325" lon="5.41135">
        <ele>443</ele>
        <time>2018-04-21T09:51:57+02:00</time>
      </trkpt>
      <trkpt lat="45.23255" lon="5.4116">
        <ele>444</ele>
        <time>2018-04-21T09:52:14+02:00</time>
      </trkpt>
      <trkpt lat="45.23257" lon="5.41169">
        <ele>445</ele>
        <time>2018-04-21T09:52:19+02:00</time>
      </trkpt>
      <trkpt lat="45.23257" lon="5.41194">
        <ele>445</ele>
        <time>2018-04-21T09:52:34+02:00</time>
      </trkpt>
      <trkpt lat="45.23255" lon="5.4122">
        <ele>446</ele>
        <time>2018-04-21T09:52:49+02:00</time>
      </trkpt>
      <trkpt lat="45.23256" lon="5.41242">
        <ele>447</ele>
        <time>2018-04-21T09:53:04+02:00</time>
      </trkpt>
      <trkpt lat="45.23257" lon="5.41271">
        <ele>448</ele>
        <time>2018-04-21T09:53:21+02:00</time>
      </trkpt>
      <trkpt lat="45.23259" lon="5.41279">
        <ele>448</ele>
        <time>2018-04-21T09:53:27+02:00</time>
      </trkpt>
      <trkpt lat="45.23263" lon="5.41307">
        <ele>449</ele>
        <time>2018-04-21T09:53:57+02:00</time>
      </trkpt>
      <trkpt lat="45.23266" lon="5.41329">
        <ele>450</ele>
        <time>2018-04-21T09:54:33+02:00</time>
      </trkpt>
      <trkpt lat="45.23265" lon="5.41354">
        <ele>451</ele>
        <time>2018-04-21T09:54:49+02:00</time>
      </trkpt>
      <trkpt lat="45.23273" lon="5.41378">
        <ele>452</ele>
        <time>2018-04-21T09:55:06+02:00</time>
      </trkpt>
      <trkpt lat="45.23274" lon="5.41406">
        <ele>453</ele>
        <time>2018-04-21T09:56:13+02:00</time>
      </trkpt>
      <trkpt lat="45.2328" lon="5.41429">
        <ele>454</ele>
        <time>2018-04-21T09:56:31+02:00</time>
      </trkpt>
      <trkpt lat="45.23285" lon="5.41456">
        <ele>454</ele>
        <time>2018-04-21T09:56:47+02:00</time>
      </trkpt>
      <trkpt lat="45.23292" lon="5.41486">
        <ele>455</ele>
        <time>2018-04-21T09:57:06+02:00</time>
      </trkpt>
      <trkpt lat="45.23299" lon="5.41516">
        <ele>455</ele>
        <time>2018-04-21T09:57:26+02:00</time>
      </trkpt>
      <trkpt lat="45.23302" lon="5.41542">
        <ele>456</ele>
        <time>2018-04-21T09:57:42+02:00</time>
      </trkpt>
      <trkpt lat="45.23306" lon="5.41567">
        <ele>456</ele>
        <time>2018-04-21T09:57:59+02:00</time>
      </trkpt>
      <trkpt lat="45.23309" lon="5.41598">
        <ele>457</ele>
        <time>2018-04-21T09:58:36+02:00</time>
      </trkpt>
      <trkpt lat="45.23312" lon="5.41608">
        <ele>457</ele>
        <time>2018-04-21T09:58:52+02:00</time>
      </trkpt>
      <trkpt lat="45.23315" lon="5.41635">
        <ele>458</ele>
        <time>2018-04-21T09:59:08+02:00</time>
      </trkpt>
      <trkpt lat="45.23319" lon="5.41661">
        <ele>458</ele>
        <time>2018-04-21T09:59:24+02:00</time>
      </trkpt>
      <trkpt lat="45.23326" lon="5.41691">
        <ele>460</ele>
        <time>2018-04-21T09:59:41+02:00</time>
      </trkpt>
      <trkpt lat="45.23332" lon="5.41717">
        <ele>462</ele>
        <time>2018-04-21T09:59:57+02:00</time>
      </trkpt>
      <trkpt lat="45.2334" lon="5.41744">
        <ele>463</ele>
        <time>2018-04-21T10:00:14+02:00</time>
      </trkpt>
      <trkpt lat="45.23352" lon="5.41761">
        <ele>464</ele>
        <time>2018-04-21T10:00:30+02:00</time>
      </trkpt>
      <trkpt lat="45.23358" lon="5.41783">
        <ele>465</ele>
        <time>2018-04-21T10:00:44+02:00</time>
      </trkpt>
      <trkpt lat="45.2336" lon="5.41806">
        <ele>467</ele>
        <time>2018-04-21T10:00:59+02:00</time>
      </trkpt>
      <trkpt lat="45.23351" lon="5.41825">
        <ele>470</ele>
        <time>2018-04-21T10:01:17+02:00</time>
      </trkpt>
      <trkpt lat="45.23329" lon="5.41833">
        <ele>473</ele>
        <time>2018-04-21T10:01:36+02:00</time>
      </trkpt>
      <trkpt lat="45.23312" lon="5.41838">
        <ele>475</ele>
        <time>2018-04-21T10:01:52+02:00</time>
      </trkpt>
      <trkpt lat="45.23289" lon="5.41837">
        <ele>476</ele>
        <time>2018-04-21T10:02:11+02:00</time>
      </trkpt>
      <trkpt lat="45.23271" lon="5.41827">
        <ele>476</ele>
        <time>2018-04-21T10:02:28+02:00</time>
      </trkpt>
      <trkpt lat="45.23255" lon="5.41814">
        <ele>475</ele>
        <time>2018-04-21T10:02:43+02:00</time>
      </trkpt>
      <trkpt lat="45.23237" lon="5.41804">
        <ele>475</ele>
        <time>2018-04-21T10:02:58+02:00</time>
      </trkpt>
      <trkpt lat="45.23222" lon="5.41801">
        <ele>476</ele>
        <time>2018-04-21T10:03:12+02:00</time>
      </trkpt>
      <trkpt lat="45.23207" lon="5.41799">
        <ele>478</ele>
        <time>2018-04-21T10:03:28+02:00</time>
      </trkpt>
      <trkpt lat="45.23199" lon="5.41793">
        <ele>478</ele>
        <time>2018-04-21T10:03:40+02:00</time>
      </trkpt>
      <trkpt lat="45.23182" lon="5.41794">
        <ele>480</ele>
        <time>2018-04-21T10:03:56+02:00</time>
      </trkpt>
      <trkpt lat="45.23166" lon="5.4179">
        <ele>481</ele>
        <time>2018-04-21T10:04:13+02:00</time>
      </trkpt>
      <trkpt lat="45.23152" lon="5.41786">
        <ele>482</ele>
        <time>2018-04-21T10:04:27+02:00</time>
      </trkpt>
      <trkpt lat="45.23132" lon="5.41778">
        <ele>484</ele>
        <time>2018-04-21T10:04:45+02:00</time>
      </trkpt>
      <trkpt lat="45.23115" lon="5.41775">
        <ele>485</ele>
        <time>2018-04-21T10:05:02+02:00</time>
      </trkpt>
      <trkpt lat="45.23097" lon="5.41777">
        <ele>487</ele>
        <time>2018-04-21T10:05:19+02:00</time>
      </trkpt>
      <trkpt lat="45.23079" lon="5.41778">
        <ele>489</ele>
        <time>2018-04-21T10:05:36+02:00</time>
      </trkpt>
      <trkpt lat="45.23066" lon="5.41782">
        <ele>490</ele>
        <time>2018-04-21T10:05:54+02:00</time>
      </trkpt>
      <trkpt lat="45.23046" lon="5.41786">
        <ele>491</ele>
        <time>2018-04-21T10:06:12+02:00</time>
      </trkpt>
      <trkpt lat="45.23027" lon="5.4179">
        <ele>493</ele>
        <time>2018-04-21T10:06:29+02:00</time>
      </trkpt>
      <trkpt lat="45.23001" lon="5.41796">
        <ele>494</ele>
        <time>2018-04-21T10:06:48+02:00</time>
      </trkpt>
      <trkpt lat="45.22985" lon="5.41798">
        <ele>495</ele>
        <time>2018-04-21T10:07:05+02:00</time>
      </trkpt>
      <trkpt lat="45.22974" lon="5.418">
        <ele>495</ele>
        <time>2018-04-21T10:07:13+02:00</time>
      </trkpt>
      <trkpt lat="45.22947" lon="5.41805">
        <ele>496</ele>
        <time>2018-04-21T10:07:35+02:00</time>
      </trkpt>
      <trkpt lat="45.22932" lon="5.41807">
        <ele>497</ele>
        <time>2018-04-21T10:07:49+02:00</time>
      </trkpt>
      <trkpt lat="45.22911" lon="5.41818">
        <ele>497</ele>
        <time>2018-04-21T10:08:09+02:00</time>
      </trkpt>
      <trkpt lat="45.22901" lon="5.41826">
        <ele>496</ele>
        <time>2018-04-21T10:08:28+02:00</time>
      </trkpt>
      <trkpt lat="45.22901" lon="5.4184">
        <ele>496</ele>
        <time>2018-04-21T10:08:49+02:00</time>
      </trkpt>
      <trkpt lat="45.22906" lon="5.41863">
        <ele>497</ele>
        <time>2018-04-21T10:09:06+02:00</time>
      </trkpt>
      <trkpt lat="45.22916" lon="5.41882">
        <ele>499</ele>
        <time>2018-04-21T10:09:21+02:00</time>
      </trkpt>
      <trkpt lat="45.22929" lon="5.41906">
        <ele>501</ele>
        <time>2018-04-21T10:09:40+02:00</time>
      </trkpt>
      <trkpt lat="45.22934" lon="5.41925">
        <ele>502</ele>
        <time>2018-04-21T10:09:57+02:00</time>
      </trkpt>
      <trkpt lat="45.22944" lon="5.41942">
        <ele>504</ele>
        <time>2018-04-21T10:10:13+02:00</time>
      </trkpt>
      <trkpt lat="45.22957" lon="5.41963">
        <ele>506</ele>
        <time>2018-04-21T10:10:30+02:00</time>
      </trkpt>
      <trkpt lat="45.22974" lon="5.41983">
        <ele>508</ele>
        <time>2018-04-21T10:10:48+02:00</time>
      </trkpt>
      <trkpt lat="45.22985" lon="5.42002">
        <ele>509</ele>
        <time>2018-04-21T10:11:05+02:00</time>
      </trkpt>
      <trkpt lat="45.22987" lon="5.42015">
        <ele>510</ele>
        <time>2018-04-21T10:12:22+02:00</time>
      </trkpt>
      <trkpt lat="45.22973" lon="5.4203">
        <ele>510</ele>
        <time>2018-04-21T10:12:40+02:00</time>
      </trkpt>
      <trkpt lat="45.22962" lon="5.42043">
        <ele>511</ele>
        <time>2018-04-21T10:12:57+02:00</time>
      </trkpt>
      <trkpt lat="45.22943" lon="5.42067">
        <ele>512</ele>
        <time>2018-04-21T10:13:16+02:00</time>
      </trkpt>
      <trkpt lat="45.22928" lon="5.42083">
        <ele>513</ele>
        <time>2018-04-21T10:13:37+02:00</time>
      </trkpt>
      <trkpt lat="45.22911" lon="5.42104">
        <ele>513</ele>
        <time>2018-04-21T10:13:55+02:00</time>
      </trkpt>
      <trkpt lat="45.22903" lon="5.4212">
        <ele>512</ele>
        <time>2018-04-21T10:14:13+02:00</time>
      </trkpt>
      <trkpt lat="45.2289" lon="5.42144">
        <ele>511</ele>
        <time>2018-04-21T10:14:52+02:00</time>
      </trkpt>
      <trkpt lat="45.22888" lon="5.42158">
        <ele>511</ele>
        <time>2018-04-21T10:15:13+02:00</time>
      </trkpt>
      <trkpt lat="45.22891" lon="5.42188">
        <ele>512</ele>
        <time>2018-04-21T10:16:03+02:00</time>
      </trkpt>
      <trkpt lat="45.22893" lon="5.42196">
        <ele>512</ele>
        <time>2018-04-21T10:17:23+02:00</time>
      </trkpt>
      <trkpt lat="45.22889" lon="5.42151">
        <ele>511</ele>
        <time>2018-04-21T10:20:06+02:00</time>
      </trkpt>
      <trkpt lat="45.22894" lon="5.42141">
        <ele>511</ele>
        <time>2018-04-21T10:20:21+02:00</time>
      </trkpt>
      <trkpt lat="45.22906" lon="5.42113">
        <ele>512</ele>
        <time>2018-04-21T10:21:30+02:00</time>
      </trkpt>
      <trkpt lat="45.22921" lon="5.42096">
        <ele>514</ele>
        <time>2018-04-21T10:21:48+02:00</time>
      </trkpt>
      <trkpt lat="45.22941" lon="5.42077">
        <ele>513</ele>
        <time>2018-04-21T10:22:06+02:00</time>
      </trkpt>
      <trkpt lat="45.22957" lon="5.42057">
        <ele>512</ele>
        <time>2018-04-21T10:22:21+02:00</time>
      </trkpt>
      <trkpt lat="45.22973" lon="5.42041">
        <ele>511</ele>
        <time>2018-04-21T10:22:38+02:00</time>
      </trkpt>
      <trkpt lat="45.22989" lon="5.42019">
        <ele>510</ele>
        <time>2018-04-21T10:22:56+02:00</time>
      </trkpt>
      <trkpt lat="45.23001" lon="5.42022">
        <ele>511</ele>
        <time>2018-04-21T10:23:11+02:00</time>
      </trkpt>
      <trkpt lat="45.23012" lon="5.42043">
        <ele>512</ele>
        <time>2018-04-21T10:23:27+02:00</time>
      </trkpt>
      <trkpt lat="45.23025" lon="5.42064">
        <ele>513</ele>
        <time>2018-04-21T10:23:43+02:00</time>
      </trkpt>
      <trkpt lat="45.23042" lon="5.4209">
        <ele>515</ele>
        <time>2018-04-21T10:24:02+02:00</time>
      </trkpt>
      <trkpt lat="45.23056" lon="5.42116">
        <ele>515</ele>
        <time>2018-04-21T10:24:20+02:00</time>
      </trkpt>
      <trkpt lat="45.23072" lon="5.42138">
        <ele>516</ele>
        <time>2018-04-21T10:24:36+02:00</time>
      </trkpt>
      <trkpt lat="45.23079" lon="5.4215">
        <ele>516</ele>
        <time>2018-04-21T10:24:55+02:00</time>
      </trkpt>
      <trkpt lat="45.23093" lon="5.42173">
        <ele>516</ele>
        <time>2018-04-21T10:25:14+02:00</time>
      </trkpt>
      <trkpt lat="45.2311" lon="5.42192">
        <ele>517</ele>
        <time>2018-04-21T10:25:30+02:00</time>
      </trkpt>
      <trkpt lat="45.23123" lon="5.42202">
        <ele>518</ele>
        <time>2018-04-21T10:25:39+02:00</time>
      </trkpt>
      <trkpt lat="45.2314" lon="5.42223">
        <ele>518</ele>
        <time>2018-04-21T10:25:58+02:00</time>
      </trkpt>
      <trkpt lat="45.2316" lon="5.42244">
        <ele>519</ele>
        <time>2018-04-21T10:26:16+02:00</time>
      </trkpt>
      <trkpt lat="45.23177" lon="5.42264">
        <ele>520</ele>
        <time>2018-04-21T10:26:32+02:00</time>
      </trkpt>
      <trkpt lat="45.23186" lon="5.42282">
        <ele>521</ele>
        <time>2018-04-21T10:26:47+02:00</time>
      </trkpt>
      <trkpt lat="45.23198" lon="5.42297">
        <ele>521</ele>
        <time>2018-04-21T10:27:00+02:00</time>
      </trkpt>
      <trkpt lat="45.23216" lon="5.42321">
        <ele>522</ele>
        <time>2018-04-21T10:27:38+02:00</time>
      </trkpt>
      <trkpt lat="45.23227" lon="5.42343">
        <ele>523</ele>
        <time>2018-04-21T10:27:54+02:00</time>
      </trkpt>
      <trkpt lat="45.23244" lon="5.42365">
        <ele>523</ele>
        <time>2018-04-21T10:28:12+02:00</time>
      </trkpt>
      <trkpt lat="45.23248" lon="5.42372">
        <ele>523</ele>
        <time>2018-04-21T10:28:19+02:00</time>
      </trkpt>
      <trkpt lat="45.2327" lon="5.42389">
        <ele>523</ele>
        <time>2018-04-21T10:28:36+02:00</time>
      </trkpt>
      <trkpt lat="45.23284" lon="5.424">
        <ele>522</ele>
        <time>2018-04-21T10:28:53+02:00</time>
      </trkpt>
      <trkpt lat="45.23301" lon="5.4241">
        <ele>522</ele>
        <time>2018-04-21T10:29:10+02:00</time>
      </trkpt>
      <trkpt lat="45.2332" lon="5.42424">
        <ele>521</ele>
        <time>2018-04-21T10:29:26+02:00</time>
      </trkpt>
      <trkpt lat="45.23336" lon="5.42443">
        <ele>520</ele>
        <time>2018-04-21T10:29:44+02:00</time>
      </trkpt>
      <trkpt lat="45.23358" lon="5.42452">
        <ele>520</ele>
        <time>2018-04-21T10:30:01+02:00</time>
      </trkpt>
      <trkpt lat="45.2338" lon="5.42457">
        <ele>520</ele>
        <time>2018-04-21T10:30:18+02:00</time>
      </trkpt>
      <trkpt lat="45.23402" lon="5.42463">
        <ele>520</ele>
        <time>2018-04-21T10:30:39+02:00</time>
      </trkpt>
      <trkpt lat="45.23419" lon="5.42469">
        <ele>520</ele>
        <time>2018-04-21T10:31:08+02:00</time>
      </trkpt>
      <trkpt lat="45.23454" lon="5.42484">
        <ele>521</ele>
        <time>2018-04-21T10:31:34+02:00</time>
      </trkpt>
      <trkpt lat="45.23442" lon="5.42502">
        <ele>522</ele>
        <time>2018-04-21T10:31:51+02:00</time>
      </trkpt>
      <trkpt lat="45.23432" lon="5.42521">
        <ele>523</ele>
        <time>2018-04-21T10:32:09+02:00</time>
      </trkpt>
      <trkpt lat="45.23416" lon="5.42541">
        <ele>524</ele>
        <time>2018-04-21T10:32:25+02:00</time>
      </trkpt>
      <trkpt lat="45.23412" lon="5.42546">
        <ele>524</ele>
        <time>2018-04-21T10:32:28+02:00</time>
      </trkpt>
      <trkpt lat="45.23394" lon="5.42569">
        <ele>525</ele>
        <time>2018-04-21T10:32:46+02:00</time>
      </trkpt>
      <trkpt lat="45.23378" lon="5.4259">
        <ele>526</ele>
        <time>2018-04-21T10:33:05+02:00</time>
      </trkpt>
      <trkpt lat="45.23365" lon="5.42609">
        <ele>527</ele>
        <time>2018-04-21T10:33:24+02:00</time>
      </trkpt>
      <trkpt lat="45.23348" lon="5.42631">
        <ele>528</ele>
        <time>2018-04-21T10:35:04+02:00</time>
      </trkpt>
      <trkpt lat="45.2334" lon="5.42649">
        <ele>529</ele>
        <time>2018-04-21T10:35:19+02:00</time>
      </trkpt>
      <trkpt lat="45.2333" lon="5.42668">
        <ele>530</ele>
        <time>2018-04-21T10:35:35+02:00</time>
      </trkpt>
      <trkpt lat="45.2332" lon="5.42686">
        <ele>530</ele>
        <time>2018-04-21T10:35:51+02:00</time>
      </trkpt>
      <trkpt lat="45.23316" lon="5.42695">
        <ele>530</ele>
        <time>2018-04-21T10:36:01+02:00</time>
      </trkpt>
      <trkpt lat="45.23307" lon="5.42721">
        <ele>530</ele>
        <time>2018-04-21T10:36:20+02:00</time>
      </trkpt>
      <trkpt lat="45.23302" lon="5.42739">
        <ele>529</ele>
        <time>2018-04-21T10:36:33+02:00</time>
      </trkpt>
      <trkpt lat="45.23294" lon="5.42754">
        <ele>529</ele>
        <time>2018-04-21T10:36:48+02:00</time>
      </trkpt>
      <trkpt lat="45.23277" lon="5.42773">
        <ele>528</ele>
        <time>2018-04-21T10:37:03+02:00</time>
      </trkpt>
      <trkpt lat="45.23255" lon="5.42769">
        <ele>526</ele>
        <time>2018-04-21T10:37:21+02:00</time>
      </trkpt>
      <trkpt lat="45.23233" lon="5.42772">
        <ele>525</ele>
        <time>2018-04-21T10:37:39+02:00</time>
      </trkpt>
      <trkpt lat="45.23217" lon="5.42779">
        <ele>524</ele>
        <time>2018-04-21T10:37:53+02:00</time>
      </trkpt>
      <trkpt lat="45.2321" lon="5.42778">
        <ele>524</ele>
        <time>2018-04-21T10:38:02+02:00</time>
      </trkpt>
      <trkpt lat="45.23184" lon="5.42771">
        <ele>522</ele>
        <time>2018-04-21T10:38:22+02:00</time>
      </trkpt>
      <trkpt lat="45.23161" lon="5.42771">
        <ele>520</ele>
        <time>2018-04-21T10:38:41+02:00</time>
      </trkpt>
      <trkpt lat="45.23139" lon="5.42777">
        <ele>518</ele>
        <time>2018-04-21T10:38:59+02:00</time>
      </trkpt>
      <trkpt lat="45.23113" lon="5.42787">
        <ele>516</ele>
        <time>2018-04-21T10:39:18+02:00</time>
      </trkpt>
      <trkpt lat="45.231" lon="5.42802">
        <ele>515</ele>
        <time>2018-04-21T10:39:35+02:00</time>
      </trkpt>
      <trkpt lat="45.23094" lon="5.42826">
        <ele>515</ele>
        <time>2018-04-21T10:39:52+02:00</time>
      </trkpt>
      <trkpt lat="45.23096" lon="5.42854">
        <ele>514</ele>
        <time>2018-04-21T10:40:10+02:00</time>
      </trkpt>
      <trkpt lat="45.23101" lon="5.42878">
        <ele>513</ele>
        <time>2018-04-21T10:40:25+02:00</time>
      </trkpt>
      <trkpt lat="45.23107" lon="5.429">
        <ele>513</ele>
        <time>2018-04-21T10:40:40+02:00</time>
      </trkpt>
      <trkpt lat="45.23113" lon="5.42923">
        <ele>513</ele>
        <time>2018-04-21T10:40:56+02:00</time>
      </trkpt>
      <trkpt lat="45.23125" lon="5.42948">
        <ele>513</ele>
        <time>2018-04-21T10:41:16+02:00</time>
      </trkpt>
      <trkpt lat="45.23135" lon="5.4297">
        <ele>514</ele>
        <time>2018-04-21T10:41:32+02:00</time>
      </trkpt>
      <trkpt lat="45.23139" lon="5.42983">
        <ele>515</ele>
        <time>2018-04-21T10:41:45+02:00</time>
      </trkpt>
      <trkpt lat="45.23149" lon="5.43003">
        <ele>516</ele>
        <time>2018-04-21T10:42:01+02:00</time>
      </trkpt>
      <trkpt lat="45.23163" lon="5.43026">
        <ele>517</ele>
        <time>2018-04-21T10:42:20+02:00</time>
      </trkpt>
      <trkpt lat="45.23174" lon="5.43051">
        <ele>517</ele>
        <time>2018-04-21T10:42:37+02:00</time>
      </trkpt>
      <trkpt lat="45.23184" lon="5.43074">
        <ele>517</ele>
        <time>2018-04-21T10:42:53+02:00</time>
      </trkpt>
      <trkpt lat="45.23195" lon="5.43095">
        <ele>516</ele>
        <time>2018-04-21T10:43:08+02:00</time>
      </trkpt>
      <trkpt lat="45.23204" lon="5.43112">
        <ele>515</ele>
        <time>2018-04-21T10:43:24+02:00</time>
      </trkpt>
      <trkpt lat="45.23218" lon="5.43139">
        <ele>512</ele>
        <time>2018-04-21T10:43:38+02:00</time>
      </trkpt>
      <trkpt lat="45.23235" lon="5.43166">
        <ele>509</ele>
        <time>2018-04-21T10:43:55+02:00</time>
      </trkpt>
      <trkpt lat="45.2325" lon="5.43186">
        <ele>507</ele>
        <time>2018-04-21T10:44:11+02:00</time>
      </trkpt>
      <trkpt lat="45.23263" lon="5.43212">
        <ele>499</ele>
        <time>2018-04-21T10:44:28+02:00</time>
      </trkpt>
      <trkpt lat="45.23275" lon="5.43225">
        <ele>495</ele>
        <time>2018-04-21T10:44:42+02:00</time>
      </trkpt>
      <trkpt lat="45.23288" lon="5.43248">
        <ele>488</ele>
        <time>2018-04-21T10:45:13+02:00</time>
      </trkpt>
      <trkpt lat="45.23303" lon="5.43259">
        <ele>487</ele>
        <time>2018-04-21T10:46:12+02:00</time>
      </trkpt>
      <trkpt lat="45.23321" lon="5.43271">
        <ele>486</ele>
        <time>2018-04-21T10:46:47+02:00</time>
      </trkpt>
      <trkpt lat="45.23342" lon="5.43274">
        <ele>486</ele>
        <time>2018-04-21T10:47:13+02:00</time>
      </trkpt>
      <trkpt lat="45.23365" lon="5.43272">
        <ele>487</ele>
        <time>2018-04-21T10:47:27+02:00</time>
      </trkpt>
      <trkpt lat="45.23378" lon="5.43276">
        <ele>486</ele>
        <time>2018-04-21T10:47:41+02:00</time>
      </trkpt>
      <trkpt lat="45.23401" lon="5.43276">
        <ele>487</ele>
        <time>2018-04-21T10:48:00+02:00</time>
      </trkpt>
      <trkpt lat="45.23418" lon="5.43285">
        <ele>486</ele>
        <time>2018-04-21T10:48:15+02:00</time>
      </trkpt>
      <trkpt lat="45.23431" lon="5.43293">
        <ele>487</ele>
        <time>2018-04-21T10:48:30+02:00</time>
      </trkpt>
      <trkpt lat="45.23441" lon="5.43306">
        <ele>487</ele>
        <time>2018-04-21T10:48:43+02:00</time>
      </trkpt>
      <trkpt lat="45.23485" lon="5.43347">
        <ele>487</ele>
        <time>2018-04-21T10:49:51+02:00</time>
      </trkpt>
      <trkpt lat="45.23504" lon="5.43356">
        <ele>489</ele>
        <time>2018-04-21T10:50:10+02:00</time>
      </trkpt>
      <trkpt lat="45.2352" lon="5.43366">
        <ele>491</ele>
        <time>2018-04-21T10:50:31+02:00</time>
      </trkpt>
      <trkpt lat="45.23534" lon="5.4337">
        <ele>494</ele>
        <time>2018-04-21T10:50:48+02:00</time>
      </trkpt>
      <trkpt lat="45.23555" lon="5.43375">
        <ele>497</ele>
        <time>2018-04-21T10:51:06+02:00</time>
      </trkpt>
      <trkpt lat="45.23582" lon="5.43377">
        <ele>502</ele>
        <time>2018-04-21T10:51:23+02:00</time>
      </trkpt>
      <trkpt lat="45.23594" lon="5.43389">
        <ele>503</ele>
        <time>2018-04-21T10:51:40+02:00</time>
      </trkpt>
      <trkpt lat="45.2361" lon="5.43393">
        <ele>504</ele>
        <time>2018-04-21T10:51:56+02:00</time>
      </trkpt>
      <trkpt lat="45.2362" lon="5.43396">
        <ele>505</ele>
        <time>2018-04-21T10:52:12+02:00</time>
      </trkpt>
      <trkpt lat="45.23633" lon="5.43402">
        <ele>506</ele>
        <time>2018-04-21T10:52:26+02:00</time>
      </trkpt>
      <trkpt lat="45.2365" lon="5.43412">
        <ele>506</ele>
        <time>2018-04-21T10:52:40+02:00</time>
      </trkpt>
      <trkpt lat="45.23663" lon="5.43419">
        <ele>506</ele>
        <time>2018-04-21T10:52:53+02:00</time>
      </trkpt>
      <trkpt lat="45.23689" lon="5.43435">
        <ele>504</ele>
        <time>2018-04-21T10:53:08+02:00</time>
      </trkpt>
      <trkpt lat="45.23705" lon="5.4345">
        <ele>501</ele>
        <time>2018-04-21T10:53:25+02:00</time>
      </trkpt>
      <trkpt lat="45.23719" lon="5.43463">
        <ele>500</ele>
        <time>2018-04-21T10:53:40+02:00</time>
      </trkpt>
      <trkpt lat="45.23727" lon="5.43474">
        <ele>498</ele>
        <time>2018-04-21T10:53:55+02:00</time>
      </trkpt>
      <trkpt lat="45.23738" lon="5.43484">
        <ele>497</ele>
        <time>2018-04-21T10:54:10+02:00</time>
      </trkpt>
      <trkpt lat="45.23751" lon="5.43503">
        <ele>494</ele>
        <time>2018-04-21T10:54:27+02:00</time>
      </trkpt>
      <trkpt lat="45.23751" lon="5.43521">
        <ele>491</ele>
        <time>2018-04-21T10:54:43+02:00</time>
      </trkpt>
      <trkpt lat="45.23738" lon="5.43532">
        <ele>487</ele>
        <time>2018-04-21T10:54:59+02:00</time>
      </trkpt>
      <trkpt lat="45.23723" lon="5.43549">
        <ele>482</ele>
        <time>2018-04-21T10:55:27+02:00</time>
      </trkpt>
      <trkpt lat="45.23705" lon="5.43544">
        <ele>480</ele>
        <time>2018-04-21T10:55:45+02:00</time>
      </trkpt>
      <trkpt lat="45.23663" lon="5.43529">
        <ele>476</ele>
        <time>2018-04-21T10:56:02+02:00</time>
      </trkpt>
      <trkpt lat="45.23646" lon="5.43527">
        <ele>475</ele>
        <time>2018-04-21T10:56:16+02:00</time>
      </trkpt>
      <trkpt lat="45.23628" lon="5.43534">
        <ele>473</ele>
        <time>2018-04-21T10:56:32+02:00</time>
      </trkpt>
      <trkpt lat="45.23611" lon="5.43537">
        <ele>472</ele>
        <time>2018-04-21T10:56:50+02:00</time>
      </trkpt>
      <trkpt lat="45.23599" lon="5.43541">
        <ele>471</ele>
        <time>2018-04-21T10:57:07+02:00</time>
      </trkpt>
      <trkpt lat="45.23584" lon="5.43549">
        <ele>469</ele>
        <time>2018-04-21T10:57:23+02:00</time>
      </trkpt>
      <trkpt lat="45.23568" lon="5.43558">
        <ele>466</ele>
        <time>2018-04-21T10:57:39+02:00</time>
      </trkpt>
      <trkpt lat="45.23546" lon="5.43575">
        <ele>460</ele>
        <time>2018-04-21T10:57:59+02:00</time>
      </trkpt>
      <trkpt lat="45.23529" lon="5.43584">
        <ele>456</ele>
        <time>2018-04-21T10:58:16+02:00</time>
      </trkpt>
      <trkpt lat="45.2351" lon="5.43583">
        <ele>454</ele>
        <time>2018-04-21T10:58:33+02:00</time>
      </trkpt>
      <trkpt lat="45.23491" lon="5.43579">
        <ele>453</ele>
        <time>2018-04-21T10:58:48+02:00</time>
      </trkpt>
      <trkpt lat="45.23487" lon="5.43601">
        <ele>448</ele>
        <time>2018-04-21T10:59:19+02:00</time>
      </trkpt>
      <trkpt lat="45.23493" lon="5.43623">
        <ele>445</ele>
        <time>2018-04-21T10:59:51+02:00</time>
      </trkpt>
      <trkpt lat="45.23505" lon="5.4365">
        <ele>441</ele>
        <time>2018-04-21T11:00:29+02:00</time>
      </trkpt>
      <trkpt lat="45.23512" lon="5.43667">
        <ele>439</ele>
        <time>2018-04-21T11:00:41+02:00</time>
      </trkpt>
      <trkpt lat="45.23521" lon="5.43681">
        <ele>436</ele>
        <time>2018-04-21T11:00:56+02:00</time>
      </trkpt>
      <trkpt lat="45.23527" lon="5.43693">
        <ele>434</ele>
        <time>2018-04-21T11:01:09+02:00</time>
      </trkpt>
      <trkpt lat="45.23532" lon="5.43714">
        <ele>429</ele>
        <time>2018-04-21T11:01:24+02:00</time>
      </trkpt>
      <trkpt lat="45.23547" lon="5.43732">
        <ele>425</ele>
        <time>2018-04-21T11:01:52+02:00</time>
      </trkpt>
      <trkpt lat="45.23552" lon="5.43749">
        <ele>421</ele>
        <time>2018-04-21T11:02:33+02:00</time>
      </trkpt>
      <trkpt lat="45.23576" lon="5.4375">
        <ele>421</ele>
        <time>2018-04-21T11:02:51+02:00</time>
      </trkpt>
      <trkpt lat="45.23596" lon="5.43756">
        <ele>421</ele>
        <time>2018-04-21T11:03:24+02:00</time>
      </trkpt>
      <trkpt lat="45.23612" lon="5.43756">
        <ele>421</ele>
        <time>2018-04-21T11:03:39+02:00</time>
      </trkpt>
      <trkpt lat="45.23634" lon="5.43757">
        <ele>421</ele>
        <time>2018-04-21T11:03:55+02:00</time>
      </trkpt>
      <trkpt lat="45.23654" lon="5.43762">
        <ele>421</ele>
        <time>2018-04-21T11:04:13+02:00</time>
      </trkpt>
      <trkpt lat="45.23674" lon="5.43769">
        <ele>422</ele>
        <time>2018-04-21T11:04:32+02:00</time>
      </trkpt>
      <trkpt lat="45.23702" lon="5.4377">
        <ele>424</ele>
        <time>2018-04-21T11:04:48+02:00</time>
      </trkpt>
      <trkpt lat="45.23717" lon="5.43775">
        <ele>424</ele>
        <time>2018-04-21T11:05:04+02:00</time>
      </trkpt>
      <trkpt lat="45.23735" lon="5.4378">
        <ele>425</ele>
        <time>2018-04-21T11:05:20+02:00</time>
      </trkpt>
      <trkpt lat="45.23758" lon="5.43786">
        <ele>424</ele>
        <time>2018-04-21T11:05:39+02:00</time>
      </trkpt>
      <trkpt lat="45.23771" lon="5.43789">
        <ele>423</ele>
        <time>2018-04-21T11:05:56+02:00</time>
      </trkpt>
      <trkpt lat="45.23788" lon="5.43786">
        <ele>423</ele>
        <time>2018-04-21T11:06:12+02:00</time>
      </trkpt>
      <trkpt lat="45.23803" lon="5.43785">
        <ele>422</ele>
        <time>2018-04-21T11:06:27+02:00</time>
      </trkpt>
      <trkpt lat="45.23818" lon="5.43779">
        <ele>423</ele>
        <time>2018-04-21T11:06:43+02:00</time>
      </trkpt>
      <trkpt lat="45.23835" lon="5.43777">
        <ele>422</ele>
        <time>2018-04-21T11:07:00+02:00</time>
      </trkpt>
      <trkpt lat="45.23854" lon="5.43773">
        <ele>420</ele>
        <time>2018-04-21T11:07:16+02:00</time>
      </trkpt>
      <trkpt lat="45.23872" lon="5.43773">
        <ele>417</ele>
        <time>2018-04-21T11:07:56+02:00</time>
      </trkpt>
      <trkpt lat="45.23881" lon="5.43766">
        <ele>418</ele>
        <time>2018-04-21T11:08:12+02:00</time>
      </trkpt>
      <trkpt lat="45.23899" lon="5.43747">
        <ele>419</ele>
        <time>2018-04-21T11:08:26+02:00</time>
      </trkpt>
      <trkpt lat="45.23923" lon="5.43694">
        <ele>423</ele>
        <time>2018-04-21T11:10:01+02:00</time>
      </trkpt>
      <trkpt lat="45.23925" lon="5.43674">
        <ele>426</ele>
        <time>2018-04-21T11:10:54+02:00</time>
      </trkpt>
      <trkpt lat="45.23932" lon="5.43651">
        <ele>428</ele>
        <time>2018-04-21T11:11:09+02:00</time>
      </trkpt>
      <trkpt lat="45.23936" lon="5.43622">
        <ele>433</ele>
        <time>2018-04-21T11:11:42+02:00</time>
      </trkpt>
      <trkpt lat="45.23942" lon="5.43605">
        <ele>435</ele>
        <time>2018-04-21T11:12:00+02:00</time>
      </trkpt>
      <trkpt lat="45.23949" lon="5.43582">
        <ele>439</ele>
        <time>2018-04-21T11:12:50+02:00</time>
      </trkpt>
      <trkpt lat="45.23958" lon="5.43558">
        <ele>444</ele>
        <time>2018-04-21T11:13:10+02:00</time>
      </trkpt>
      <trkpt lat="45.23971" lon="5.43534">
        <ele>448</ele>
        <time>2018-04-21T11:13:42+02:00</time>
      </trkpt>
      <trkpt lat="45.23975" lon="5.43521">
        <ele>451</ele>
        <time>2018-04-21T11:13:55+02:00</time>
      </trkpt>
      <trkpt lat="45.23981" lon="5.43501">
        <ele>455</ele>
        <time>2018-04-21T11:14:11+02:00</time>
      </trkpt>
      <trkpt lat="45.23991" lon="5.43491">
        <ele>457</ele>
        <time>2018-04-21T11:14:27+02:00</time>
      </trkpt>
      <trkpt lat="45.24004" lon="5.43478">
        <ele>461</ele>
        <time>2018-04-21T11:14:43+02:00</time>
      </trkpt>
      <trkpt lat="45.24015" lon="5.43474">
        <ele>464</ele>
        <time>2018-04-21T11:15:02+02:00</time>
      </trkpt>
      <trkpt lat="45.24027" lon="5.43462">
        <ele>469</ele>
        <time>2018-04-21T11:15:21+02:00</time>
      </trkpt>
      <trkpt lat="45.24047" lon="5.43449">
        <ele>475</ele>
        <time>2018-04-21T11:16:10+02:00</time>
      </trkpt>
      <trkpt lat="45.24072" lon="5.4345">
        <ele>479</ele>
        <time>2018-04-21T11:16:28+02:00</time>
      </trkpt>
      <trkpt lat="45.24076" lon="5.43478">
        <ele>475</ele>
        <time>2018-04-21T11:17:02+02:00</time>
      </trkpt>
      <trkpt lat="45.24077" lon="5.43499">
        <ele>472</ele>
        <time>2018-04-21T11:17:18+02:00</time>
      </trkpt>
      <trkpt lat="45.24085" lon="5.43521">
        <ele>470</ele>
        <time>2018-04-21T11:17:49+02:00</time>
      </trkpt>
      <trkpt lat="45.24093" lon="5.43539">
        <ele>468</ele>
        <time>2018-04-21T11:18:05+02:00</time>
      </trkpt>
      <trkpt lat="45.24104" lon="5.43547">
        <ele>471</ele>
        <time>2018-04-21T11:18:21+02:00</time>
      </trkpt>
      <trkpt lat="45.24123" lon="5.4356">
        <ele>474</ele>
        <time>2018-04-21T11:18:39+02:00</time>
      </trkpt>
      <trkpt lat="45.24125" lon="5.4358">
        <ele>471</ele>
        <time>2018-04-21T11:19:02+02:00</time>
      </trkpt>
      <trkpt lat="45.24118" lon="5.43605">
        <ele>466</ele>
        <time>2018-04-21T11:19:17+02:00</time>
      </trkpt>
      <trkpt lat="45.24111" lon="5.4362">
        <ele>461</ele>
        <time>2018-04-21T11:19:28+02:00</time>
      </trkpt>
      <trkpt lat="45.24097" lon="5.43644">
        <ele>452</ele>
        <time>2018-04-21T11:19:54+02:00</time>
      </trkpt>
      <trkpt lat="45.2408" lon="5.43659">
        <ele>443</ele>
        <time>2018-04-21T11:20:25+02:00</time>
      </trkpt>
      <trkpt lat="45.24071" lon="5.4367">
        <ele>440</ele>
        <time>2018-04-21T11:20:39+02:00</time>
      </trkpt>
      <trkpt lat="45.24062" lon="5.43684">
        <ele>437</ele>
        <time>2018-04-21T11:20:56+02:00</time>
      </trkpt>
      <trkpt lat="45.24054" lon="5.43712">
        <ele>434</ele>
        <time>2018-04-21T11:21:36+02:00</time>
      </trkpt>
      <trkpt lat="45.24048" lon="5.43731">
        <ele>432</ele>
        <time>2018-04-21T11:22:15+02:00</time>
      </trkpt>
      <trkpt lat="45.24045" lon="5.43759">
        <ele>429</ele>
        <time>2018-04-21T11:22:47+02:00</time>
      </trkpt>
      <trkpt lat="45.24042" lon="5.43774">
        <ele>426</ele>
        <time>2018-04-21T11:23:03+02:00</time>
      </trkpt>
      <trkpt lat="45.24042" lon="5.43804">
        <ele>423</ele>
        <time>2018-04-21T11:23:34+02:00</time>
      </trkpt>
      <trkpt lat="45.24047" lon="5.43823">
        <ele>423</ele>
        <time>2018-04-21T11:23:49+02:00</time>
      </trkpt>
      <trkpt lat="45.24058" lon="5.43846">
        <ele>421</ele>
        <time>2018-04-21T11:24:20+02:00</time>
      </trkpt>
      <trkpt lat="45.2407" lon="5.4387">
        <ele>416</ele>
        <time>2018-04-21T11:24:52+02:00</time>
      </trkpt>
      <trkpt lat="45.24076" lon="5.43877">
        <ele>416</ele>
        <time>2018-04-21T11:25:13+02:00</time>
      </trkpt>
      <trkpt lat="45.24092" lon="5.4391">
        <ele>406</ele>
        <time>2018-04-21T11:25:50+02:00</time>
      </trkpt>
      <trkpt lat="45.2411" lon="5.43928">
        <ele>400</ele>
        <time>2018-04-21T11:26:29+02:00</time>
      </trkpt>
      <trkpt lat="45.24127" lon="5.43931">
        <ele>399</ele>
        <time>2018-04-21T11:26:43+02:00</time>
      </trkpt>
      <trkpt lat="45.24141" lon="5.43931">
        <ele>399</ele>
        <time>2018-04-21T11:26:59+02:00</time>
      </trkpt>
      <trkpt lat="45.24162" lon="5.4393">
        <ele>399</ele>
        <time>2018-04-21T11:27:19+02:00</time>
      </trkpt>
      <trkpt lat="45.24174" lon="5.43927">
        <ele>400</ele>
        <time>2018-04-21T11:27:35+02:00</time>
      </trkpt>
      <trkpt lat="45.24196" lon="5.43926">
        <ele>399</ele>
        <time>2018-04-21T11:27:52+02:00</time>
      </trkpt>
      <trkpt lat="45.24215" lon="5.43922">
        <ele>399</ele>
        <time>2018-04-21T11:28:05+02:00</time>
      </trkpt>
      <trkpt lat="45.24235" lon="5.43927">
        <ele>396</ele>
        <time>2018-04-21T11:28:23+02:00</time>
      </trkpt>
      <trkpt lat="45.24253" lon="5.43944">
        <ele>390</ele>
        <time>2018-04-21T11:28:50+02:00</time>
      </trkpt>
      <trkpt lat="45.24259" lon="5.43955">
        <ele>387</ele>
        <time>2018-04-21T11:29:02+02:00</time>
      </trkpt>
      <trkpt lat="45.24267" lon="5.43971">
        <ele>381</ele>
        <time>2018-04-21T11:29:18+02:00</time>
      </trkpt>
      <trkpt lat="45.24273" lon="5.43985">
        <ele>377</ele>
        <time>2018-04-21T11:29:53+02:00</time>
      </trkpt>
      <trkpt lat="45.24291" lon="5.43985">
        <ele>374</ele>
        <time>2018-04-21T11:30:09+02:00</time>
      </trkpt>
      <trkpt lat="45.24309" lon="5.43988">
        <ele>371</ele>
        <time>2018-04-21T11:30:26+02:00</time>
      </trkpt>
      <trkpt lat="45.24326" lon="5.43988">
        <ele>369</ele>
        <time>2018-04-21T11:30:43+02:00</time>
      </trkpt>
      <trkpt lat="45.24344" lon="5.43985">
        <ele>368</ele>
        <time>2018-04-21T11:31:00+02:00</time>
      </trkpt>
      <trkpt lat="45.24359" lon="5.43982">
        <ele>367</ele>
        <time>2018-04-21T11:31:15+02:00</time>
      </trkpt>
      <trkpt lat="45.24371" lon="5.43978">
        <ele>366</ele>
        <time>2018-04-21T11:31:30+02:00</time>
      </trkpt>
      <trkpt lat="45.24385" lon="5.43975">
        <ele>365</ele>
        <time>2018-04-21T11:31:45+02:00</time>
      </trkpt>
      <trkpt lat="45.24402" lon="5.43973">
        <ele>363</ele>
        <time>2018-04-21T11:32:01+02:00</time>
      </trkpt>
      <trkpt lat="45.24422" lon="5.43976">
        <ele>359</ele>
        <time>2018-04-21T11:32:17+02:00</time>
      </trkpt>
      <trkpt lat="45.24437" lon="5.43976">
        <ele>356</ele>
        <time>2018-04-21T11:32:32+02:00</time>
      </trkpt>
      <trkpt lat="45.24449" lon="5.43974">
        <ele>353</ele>
        <time>2018-04-21T11:32:47+02:00</time>
      </trkpt>
      <trkpt lat="45.24466" lon="5.43964">
        <ele>350</ele>
        <time>2018-04-21T11:33:06+02:00</time>
      </trkpt>
      <trkpt lat="45.24474" lon="5.43945">
        <ele>350</ele>
        <time>2018-04-21T11:33:21+02:00</time>
      </trkpt>
      <trkpt lat="45.24489" lon="5.43928">
        <ele>346</ele>
        <time>2018-04-21T11:33:56+02:00</time>
      </trkpt>
      <trkpt lat="45.245" lon="5.43916">
        <ele>342</ele>
        <time>2018-04-21T11:34:21+02:00</time>
      </trkpt>
      <trkpt lat="45.24509" lon="5.43892">
        <ele>346</ele>
        <time>2018-04-21T11:34:39+02:00</time>
      </trkpt>
      <trkpt lat="45.24522" lon="5.43873">
        <ele>348</ele>
        <time>2018-04-21T11:34:56+02:00</time>
      </trkpt>
      <trkpt lat="45.24534" lon="5.43852">
        <ele>350</ele>
        <time>2018-04-21T11:35:21+02:00</time>
      </trkpt>
      <trkpt lat="45.2454" lon="5.43837">
        <ele>351</ele>
        <time>2018-04-21T11:35:35+02:00</time>
      </trkpt>
      <trkpt lat="45.24558" lon="5.43824">
        <ele>351</ele>
        <time>2018-04-21T11:35:54+02:00</time>
      </trkpt>
      <trkpt lat="45.24592" lon="5.43794">
        <ele>352</ele>
        <time>2020-08-30T19:48:31+02:00</time>
      </trkpt>
      <trkpt lat="45.24641" lon="5.43769">
        <ele>354</ele>
        <time>2020-08-30T19:48:36+02:00</time>
      </trkpt>
      <trkpt lat="45.24684" lon="5.43765">
        <ele>352</ele>
        <time>2020-08-30T19:48:41+02:00</time>
      </trkpt>
      <trkpt lat="45.24764" lon="5.43697">
        <ele>359</ele>
        <time>2020-08-30T19:48:46+02:00</time>
      </trkpt>
      <trkpt lat="45.24814" lon="5.43693">
        <ele>358</ele>
        <time>2020-08-30T19:48:51+02:00</time>
      </trkpt>
      <trkpt lat="45.24865" lon="5.43675">
        <ele>361</ele>
        <time>2020-08-30T19:48:56+02:00</time>
      </trkpt>
      <trkpt lat="45.24947" lon="5.43625">
        <ele>367</ele>
        <time>2020-08-30T19:49:01+02:00</time>
      </trkpt>
      <trkpt lat="45.25072" lon="5.43591">
        <ele>364</ele>
        <time>2018-04-21T11:45:21+02:00</time>
      </trkpt>
      <trkpt lat="45.2509" lon="5.43591">
        <ele>365</ele>
        <time>2018-04-21T11:45:38+02:00</time>
      </trkpt>
      <trkpt lat="45.25114" lon="5.4359">
        <ele>366</ele>
        <time>2018-04-21T11:45:57+02:00</time>
      </trkpt>
      <trkpt lat="45.25135" lon="5.43587">
        <ele>368</ele>
        <time>2018-04-21T11:46:14+02:00</time>
      </trkpt>
      <trkpt lat="45.25133" lon="5.43566">
        <ele>370</ele>
        <time>2018-04-21T11:47:14+02:00</time>
      </trkpt>
      <trkpt lat="45.25124" lon="5.43557">
        <ele>370</ele>
        <time>2018-04-21T11:47:31+02:00</time>
      </trkpt>
      <trkpt lat="45.25103" lon="5.43541">
        <ele>372</ele>
        <time>2018-04-21T11:47:46+02:00</time>
      </trkpt>
      <trkpt lat="45.25087" lon="5.43528">
        <ele>374</ele>
        <time>2018-04-21T11:48:03+02:00</time>
      </trkpt>
      <trkpt lat="45.25078" lon="5.43518">
        <ele>375</ele>
        <time>2018-04-21T11:48:19+02:00</time>
      </trkpt>
      <trkpt lat="45.25065" lon="5.43506">
        <ele>376</ele>
        <time>2018-04-21T11:48:37+02:00</time>
      </trkpt>
      <trkpt lat="45.25048" lon="5.43499">
        <ele>376</ele>
        <time>2018-04-21T11:48:53+02:00</time>
      </trkpt>
      <trkpt lat="45.2503" lon="5.43493">
        <ele>376</ele>
        <time>2018-04-21T11:49:10+02:00</time>
      </trkpt>
      <trkpt lat="45.25025" lon="5.43491">
        <ele>376</ele>
        <time>2018-04-21T11:49:14+02:00</time>
      </trkpt>
      <trkpt lat="45.25005" lon="5.43483">
        <ele>375</ele>
        <time>2018-04-21T11:49:30+02:00</time>
      </trkpt>
      <trkpt lat="45.24991" lon="5.43479">
        <ele>375</ele>
        <time>2018-04-21T11:50:00+02:00</time>
      </trkpt>
      <trkpt lat="45.24978" lon="5.43471">
        <ele>376</ele>
        <time>2018-04-21T11:50:14+02:00</time>
      </trkpt>
      <trkpt lat="45.24967" lon="5.43466">
        <ele>376</ele>
        <time>2018-04-21T11:50:28+02:00</time>
      </trkpt>
      <trkpt lat="45.2495" lon="5.43462">
        <ele>377</ele>
        <time>2018-04-21T11:50:41+02:00</time>
      </trkpt>
      <trkpt lat="45.24929" lon="5.4346">
        <ele>377</ele>
        <time>2018-04-21T11:50:57+02:00</time>
      </trkpt>
      <trkpt lat="45.24907" lon="5.43459">
        <ele>377</ele>
        <time>2018-04-21T11:51:17+02:00</time>
      </trkpt>
      <trkpt lat="45.24889" lon="5.43445">
        <ele>378</ele>
        <time>2018-04-21T11:51:33+02:00</time>
      </trkpt>
      <trkpt lat="45.24872" lon="5.43437">
        <ele>379</ele>
        <time>2018-04-21T11:51:57+02:00</time>
      </trkpt>
      <trkpt lat="45.24856" lon="5.43428">
        <ele>380</ele>
        <time>2018-04-21T11:52:13+02:00</time>
      </trkpt>
      <trkpt lat="45.24831" lon="5.43422">
        <ele>382</ele>
        <time>2018-04-21T11:52:28+02:00</time>
      </trkpt>
      <trkpt lat="45.24815" lon="5.4342">
        <ele>383</ele>
        <time>2018-04-21T11:52:43+02:00</time>
      </trkpt>
      <trkpt lat="45.24804" lon="5.43413">
        <ele>385</ele>
        <time>2018-04-21T11:53:01+02:00</time>
      </trkpt>
      <trkpt lat="45.24791" lon="5.43402">
        <ele>387</ele>
        <time>2018-04-21T11:53:18+02:00</time>
      </trkpt>
      <trkpt lat="45.2478" lon="5.4339">
        <ele>389</ele>
        <time>2018-04-21T11:53:33+02:00</time>
      </trkpt>
      <trkpt lat="45.24772" lon="5.43383">
        <ele>390</ele>
        <time>2018-04-21T11:53:47+02:00</time>
      </trkpt>
      <trkpt lat="45.24758" lon="5.43358">
        <ele>391</ele>
        <time>2018-04-21T11:54:04+02:00</time>
      </trkpt>
      <trkpt lat="45.24744" lon="5.43341">
        <ele>392</ele>
        <time>2018-04-21T11:54:20+02:00</time>
      </trkpt>
      <trkpt lat="45.2473" lon="5.43321">
        <ele>394</ele>
        <time>2018-04-21T11:54:37+02:00</time>
      </trkpt>
      <trkpt lat="45.2472" lon="5.43303">
        <ele>395</ele>
        <time>2018-04-21T11:54:52+02:00</time>
      </trkpt>
      <trkpt lat="45.24714" lon="5.43293">
        <ele>396</ele>
        <time>2018-04-21T11:55:03+02:00</time>
      </trkpt>
      <trkpt lat="45.24704" lon="5.43273">
        <ele>396</ele>
        <time>2018-04-21T11:55:18+02:00</time>
      </trkpt>
      <trkpt lat="45.24693" lon="5.43254">
        <ele>395</ele>
        <time>2018-04-21T11:55:34+02:00</time>
      </trkpt>
      <trkpt lat="45.24682" lon="5.43233">
        <ele>394</ele>
        <time>2018-04-21T11:55:50+02:00</time>
      </trkpt>
      <trkpt lat="45.2467" lon="5.4321">
        <ele>393</ele>
        <time>2018-04-21T11:56:05+02:00</time>
      </trkpt>
      <trkpt lat="45.24661" lon="5.43181">
        <ele>393</ele>
        <time>2018-04-21T11:56:22+02:00</time>
      </trkpt>
      <trkpt lat="45.24655" lon="5.43153">
        <ele>394</ele>
        <time>2018-04-21T11:56:39+02:00</time>
      </trkpt>
      <trkpt lat="45.24652" lon="5.43119">
        <ele>395</ele>
        <time>2018-04-21T11:56:56+02:00</time>
      </trkpt>
      <trkpt lat="45.24652" lon="5.43102">
        <ele>395</ele>
        <time>2018-04-21T11:57:10+02:00</time>
      </trkpt>
      <trkpt lat="45.24654" lon="5.43081">
        <ele>394</ele>
        <time>2018-04-21T11:57:25+02:00</time>
      </trkpt>
      <trkpt lat="45.24668" lon="5.43047">
        <ele>391</ele>
        <time>2018-04-21T12:40:48+02:00</time>
      </trkpt>
      <trkpt lat="45.24682" lon="5.43031">
        <ele>391</ele>
        <time>2018-04-21T12:41:08+02:00</time>
      </trkpt>
      <trkpt lat="45.24697" lon="5.43015">
        <ele>392</ele>
        <time>2018-04-21T12:41:27+02:00</time>
      </trkpt>
      <trkpt lat="45.24714" lon="5.42998">
        <ele>392</ele>
        <time>2018-04-21T12:41:45+02:00</time>
      </trkpt>
      <trkpt lat="45.24726" lon="5.42983">
        <ele>392</ele>
        <time>2018-04-21T12:42:00+02:00</time>
      </trkpt>
      <trkpt lat="45.24738" lon="5.42965">
        <ele>392</ele>
        <time>2018-04-21T12:42:17+02:00</time>
      </trkpt>
      <trkpt lat="45.24745" lon="5.42951">
        <ele>392</ele>
        <time>2018-04-21T12:42:27+02:00</time>
      </trkpt>
      <trkpt lat="45.24761" lon="5.42934">
        <ele>392</ele>
        <time>2018-04-21T12:42:43+02:00</time>
      </trkpt>
      <trkpt lat="45.24775" lon="5.42915">
        <ele>392</ele>
        <time>2018-04-21T12:43:12+02:00</time>
      </trkpt>
      <trkpt lat="45.24793" lon="5.42894">
        <ele>393</ele>
        <time>2018-04-21T12:43:31+02:00</time>
      </trkpt>
      <trkpt lat="45.24812" lon="5.42874">
        <ele>394</ele>
        <time>2018-04-21T12:43:50+02:00</time>
      </trkpt>
      <trkpt lat="45.24835" lon="5.42858">
        <ele>396</ele>
        <time>2018-04-21T12:44:08+02:00</time>
      </trkpt>
      <trkpt lat="45.2485" lon="5.42847">
        <ele>396</ele>
        <time>2018-04-21T12:44:23+02:00</time>
      </trkpt>
      <trkpt lat="45.24863" lon="5.42838">
        <ele>396</ele>
        <time>2018-04-21T12:44:40+02:00</time>
      </trkpt>
      <trkpt lat="45.24878" lon="5.42821">
        <ele>397</ele>
        <time>2018-04-21T12:45:12+02:00</time>
      </trkpt>
      <trkpt lat="45.24884" lon="5.42799">
        <ele>398</ele>
        <time>2018-04-21T12:45:33+02:00</time>
      </trkpt>
      <trkpt lat="45.24883" lon="5.42776">
        <ele>399</ele>
        <time>2018-04-21T12:45:49+02:00</time>
      </trkpt>
      <trkpt lat="45.24877" lon="5.42747">
        <ele>400</ele>
        <time>2018-04-21T12:46:06+02:00</time>
      </trkpt>
      <trkpt lat="45.24874" lon="5.42709">
        <ele>402</ele>
        <time>2018-04-21T12:46:26+02:00</time>
      </trkpt>
      <trkpt lat="45.24872" lon="5.42682">
        <ele>402</ele>
        <time>2018-04-21T12:46:41+02:00</time>
      </trkpt>
      <trkpt lat="45.24871" lon="5.42661">
        <ele>403</ele>
        <time>2018-04-21T12:46:57+02:00</time>
      </trkpt>
      <trkpt lat="45.24871" lon="5.42635">
        <ele>403</ele>
        <time>2018-04-21T12:47:14+02:00</time>
      </trkpt>
      <trkpt lat="45.24873" lon="5.42608">
        <ele>403</ele>
        <time>2018-04-21T12:47:31+02:00</time>
      </trkpt>
      <trkpt lat="45.24871" lon="5.42593">
        <ele>403</ele>
        <time>2018-04-21T12:47:44+02:00</time>
      </trkpt>
      <trkpt lat="45.2487" lon="5.42574">
        <ele>403</ele>
        <time>2018-04-21T12:47:59+02:00</time>
      </trkpt>
      <trkpt lat="45.24869" lon="5.42552">
        <ele>404</ele>
        <time>2018-04-21T12:48:15+02:00</time>
      </trkpt>
      <trkpt lat="45.24865" lon="5.42526">
        <ele>404</ele>
        <time>2018-04-21T12:48:31+02:00</time>
      </trkpt>
      <trkpt lat="45.24861" lon="5.425">
        <ele>405</ele>
        <time>2018-04-21T12:48:48+02:00</time>
      </trkpt>
      <trkpt lat="45.24859" lon="5.42483">
        <ele>404</ele>
        <time>2018-04-21T12:49:03+02:00</time>
      </trkpt>
      <trkpt lat="45.24856" lon="5.42465">
        <ele>404</ele>
        <time>2018-04-21T12:49:22+02:00</time>
      </trkpt>
      <trkpt lat="45.24852" lon="5.42441">
        <ele>404</ele>
        <time>2018-04-21T12:49:39+02:00</time>
      </trkpt>
      <trkpt lat="45.2485" lon="5.42428">
        <ele>404</ele>
        <time>2018-04-21T12:49:47+02:00</time>
      </trkpt>
      <trkpt lat="45.24848" lon="5.42397">
        <ele>404</ele>
        <time>2018-04-21T12:50:04+02:00</time>
      </trkpt>
      <trkpt lat="45.24846" lon="5.42364">
        <ele>404</ele>
        <time>2018-04-21T12:50:21+02:00</time>
      </trkpt>
      <trkpt lat="45.24844" lon="5.42337">
        <ele>405</ele>
        <time>2018-04-21T12:50:37+02:00</time>
      </trkpt>
      <trkpt lat="45.24844" lon="5.42318">
        <ele>405</ele>
        <time>2018-04-21T12:50:52+02:00</time>
      </trkpt>
      <trkpt lat="45.24845" lon="5.42301">
        <ele>405</ele>
        <time>2018-04-21T12:51:18+02:00</time>
      </trkpt>
      <trkpt lat="45.24845" lon="5.42273">
        <ele>406</ele>
        <time>2018-04-21T12:51:35+02:00</time>
      </trkpt>
      <trkpt lat="45.24846" lon="5.42247">
        <ele>406</ele>
        <time>2018-04-21T12:51:50+02:00</time>
      </trkpt>
      <trkpt lat="45.24848" lon="5.42221">
        <ele>406</ele>
        <time>2018-04-21T12:52:06+02:00</time>
      </trkpt>
      <trkpt lat="45.24849" lon="5.42194">
        <ele>406</ele>
        <time>2018-04-21T12:52:24+02:00</time>
      </trkpt>
      <trkpt lat="45.24851" lon="5.42167">
        <ele>406</ele>
        <time>2018-04-21T12:52:41+02:00</time>
      </trkpt>
      <trkpt lat="45.24851" lon="5.42159">
        <ele>407</ele>
        <time>2018-04-21T12:52:46+02:00</time>
      </trkpt>
      <trkpt lat="45.24851" lon="5.42134">
        <ele>407</ele>
        <time>2018-04-21T12:53:02+02:00</time>
      </trkpt>
      <trkpt lat="45.24847" lon="5.42111">
        <ele>408</ele>
        <time>2018-04-21T12:53:16+02:00</time>
      </trkpt>
      <trkpt lat="45.24842" lon="5.42091">
        <ele>408</ele>
        <time>2018-04-21T12:53:31+02:00</time>
      </trkpt>
      <trkpt lat="45.24856" lon="5.42071">
        <ele>409</ele>
        <time>2018-04-21T12:53:58+02:00</time>
      </trkpt>
      <trkpt lat="45.2486" lon="5.42057">
        <ele>410</ele>
        <time>2018-04-21T12:54:16+02:00</time>
      </trkpt>
      <trkpt lat="45.24859" lon="5.42034">
        <ele>411</ele>
        <time>2018-04-21T12:54:33+02:00</time>
      </trkpt>
      <trkpt lat="45.24851" lon="5.42006">
        <ele>411</ele>
        <time>2018-04-21T12:54:50+02:00</time>
      </trkpt>
      <trkpt lat="45.24844" lon="5.41981">
        <ele>411</ele>
        <time>2018-04-21T12:55:06+02:00</time>
      </trkpt>
      <trkpt lat="45.24838" lon="5.41959">
        <ele>411</ele>
        <time>2018-04-21T12:55:22+02:00</time>
      </trkpt>
      <trkpt lat="45.2483" lon="5.41931">
        <ele>411</ele>
        <time>2018-04-21T12:55:40+02:00</time>
      </trkpt>
      <trkpt lat="45.24823" lon="5.41903">
        <ele>411</ele>
        <time>2018-04-21T12:55:58+02:00</time>
      </trkpt>
      <trkpt lat="45.2482" lon="5.4188">
        <ele>412</ele>
        <time>2018-04-21T12:56:30+02:00</time>
      </trkpt>
      <trkpt lat="45.24816" lon="5.41857">
        <ele>412</ele>
        <time>2018-04-21T12:56:46+02:00</time>
      </trkpt>
      <trkpt lat="45.24809" lon="5.41833">
        <ele>413</ele>
        <time>2018-04-21T12:57:02+02:00</time>
      </trkpt>
      <trkpt lat="45.24804" lon="5.41816">
        <ele>413</ele>
        <time>2018-04-21T12:57:13+02:00</time>
      </trkpt>
      <trkpt lat="45.24799" lon="5.41801">
        <ele>414</ele>
        <time>2018-04-21T12:57:24+02:00</time>
      </trkpt>
      <trkpt lat="45.2479" lon="5.4177">
        <ele>415</ele>
        <time>2018-04-21T12:57:40+02:00</time>
      </trkpt>
      <trkpt lat="45.24783" lon="5.41747">
        <ele>415</ele>
        <time>2018-04-21T12:57:55+02:00</time>
      </trkpt>
      <trkpt lat="45.24773" lon="5.41718">
        <ele>416</ele>
        <time>2018-04-21T12:58:13+02:00</time>
      </trkpt>
      <trkpt lat="45.24763" lon="5.41684">
        <ele>417</ele>
        <time>2018-04-21T12:58:32+02:00</time>
      </trkpt>
      <trkpt lat="45.2476" lon="5.41664">
        <ele>418</ele>
        <time>2018-04-21T12:58:48+02:00</time>
      </trkpt>
      <trkpt lat="45.2476" lon="5.41641">
        <ele>419</ele>
        <time>2018-04-21T12:59:06+02:00</time>
      </trkpt>
      <trkpt lat="45.2476" lon="5.41611">
        <ele>421</ele>
        <time>2018-04-21T12:59:24+02:00</time>
      </trkpt>
      <trkpt lat="45.2476" lon="5.41579">
        <ele>422</ele>
        <time>2018-04-21T12:59:55+02:00</time>
      </trkpt>
      <trkpt lat="45.24763" lon="5.41561">
        <ele>424</ele>
        <time>2018-04-21T13:00:09+02:00</time>
      </trkpt>
      <trkpt lat="45.24761" lon="5.41535">
        <ele>425</ele>
        <time>2018-04-21T13:00:25+02:00</time>
      </trkpt>
      <trkpt lat="45.24765" lon="5.41519">
        <ele>427</ele>
        <time>2018-04-21T13:00:42+02:00</time>
      </trkpt>
      <trkpt lat="45.24779" lon="5.41513">
        <ele>430</ele>
        <time>2018-04-21T13:01:02+02:00</time>
      </trkpt>
      <trkpt lat="45.248" lon="5.41508">
        <ele>433</ele>
        <time>2018-04-21T13:01:20+02:00</time>
      </trkpt>
      <trkpt lat="45.24799" lon="5.41536">
        <ele>432</ele>
        <time>2018-04-21T13:01:50+02:00</time>
      </trkpt>
      <trkpt lat="45.24797" lon="5.41555">
        <ele>431</ele>
        <time>2018-04-21T13:02:06+02:00</time>
      </trkpt>
      <trkpt lat="45.24798" lon="5.41575">
        <ele>430</ele>
        <time>2018-04-21T13:02:21+02:00</time>
      </trkpt>
      <trkpt lat="45.24803" lon="5.41597">
        <ele>430</ele>
        <time>2018-04-21T13:02:38+02:00</time>
      </trkpt>
      <trkpt lat="45.24808" lon="5.41614">
        <ele>430</ele>
        <time>2018-04-21T13:02:53+02:00</time>
      </trkpt>
      <trkpt lat="45.24816" lon="5.41634">
        <ele>429</ele>
        <time>2018-04-21T13:03:09+02:00</time>
      </trkpt>
      <trkpt lat="45.24828" lon="5.41638">
        <ele>431</ele>
        <time>2018-04-21T13:03:26+02:00</time>
      </trkpt>
      <trkpt lat="45.24841" lon="5.4162">
        <ele>435</ele>
        <time>2018-04-21T13:03:43+02:00</time>
      </trkpt>
      <trkpt lat="45.24853" lon="5.41609">
        <ele>439</ele>
        <time>2018-04-21T13:03:59+02:00</time>
      </trkpt>
      <trkpt lat="45.24892" lon="5.41594">
        <ele>447</ele>
        <time>2018-04-21T13:05:24+02:00</time>
      </trkpt>
      <trkpt lat="45.24909" lon="5.4159">
        <ele>450</ele>
        <time>2018-04-21T13:05:41+02:00</time>
      </trkpt>
      <trkpt lat="45.24932" lon="5.4158">
        <ele>456</ele>
        <time>2018-04-21T13:06:01+02:00</time>
      </trkpt>
      <trkpt lat="45.24937" lon="5.41544">
        <ele>458</ele>
        <time>2018-04-21T13:06:40+02:00</time>
      </trkpt>
      <trkpt lat="45.24939" lon="5.4152">
        <ele>458</ele>
        <time>2018-04-21T13:06:58+02:00</time>
      </trkpt>
      <trkpt lat="45.24947" lon="5.41503">
        <ele>461</ele>
        <time>2018-04-21T13:07:16+02:00</time>
      </trkpt>
      <trkpt lat="45.24967" lon="5.41484">
        <ele>465</ele>
        <time>2018-04-21T13:08:34+02:00</time>
      </trkpt>
      <trkpt lat="45.24974" lon="5.41479">
        <ele>466</ele>
        <time>2018-04-21T13:08:57+02:00</time>
      </trkpt>
      <trkpt lat="45.24989" lon="5.41465">
        <ele>468</ele>
        <time>2018-04-21T13:09:16+02:00</time>
      </trkpt>
      <trkpt lat="45.25002" lon="5.41451">
        <ele>469</ele>
        <time>2018-04-21T13:09:34+02:00</time>
      </trkpt>
      <trkpt lat="45.25017" lon="5.41446">
        <ele>472</ele>
        <time>2018-04-21T13:10:16+02:00</time>
      </trkpt>
      <trkpt lat="45.25034" lon="5.41436">
        <ele>474</ele>
        <time>2018-04-21T13:10:37+02:00</time>
      </trkpt>
      <trkpt lat="45.25051" lon="5.41424">
        <ele>476</ele>
        <time>2018-04-21T13:10:53+02:00</time>
      </trkpt>
      <trkpt lat="45.25056" lon="5.41409">
        <ele>475</ele>
        <time>2018-04-21T13:11:38+02:00</time>
      </trkpt>
      <trkpt lat="45.25075" lon="5.41401">
        <ele>478</ele>
        <time>2018-04-21T13:11:51+02:00</time>
      </trkpt>
      <trkpt lat="45.25094" lon="5.41399">
        <ele>480</ele>
        <time>2018-04-21T13:12:09+02:00</time>
      </trkpt>
      <trkpt lat="45.25126" lon="5.41403">
        <ele>485</ele>
        <time>2018-04-21T13:12:29+02:00</time>
      </trkpt>
      <trkpt lat="45.25144" lon="5.41406">
        <ele>487</ele>
        <time>2018-04-21T13:12:47+02:00</time>
      </trkpt>
      <trkpt lat="45.25164" lon="5.41421">
        <ele>491</ele>
        <time>2018-04-21T13:13:09+02:00</time>
      </trkpt>
      <trkpt lat="45.25176" lon="5.41436">
        <ele>494</ele>
        <time>2018-04-21T13:13:28+02:00</time>
      </trkpt>
      <trkpt lat="45.25182" lon="5.41462">
        <ele>497</ele>
        <time>2018-04-21T13:13:48+02:00</time>
      </trkpt>
      <trkpt lat="45.25184" lon="5.41493">
        <ele>500</ele>
        <time>2018-04-21T13:14:16+02:00</time>
      </trkpt>
      <trkpt lat="45.25179" lon="5.41519">
        <ele>500</ele>
        <time>2018-04-21T13:14:35+02:00</time>
      </trkpt>
      <trkpt lat="45.2518" lon="5.4154">
        <ele>500</ele>
        <time>2018-04-21T13:14:49+02:00</time>
      </trkpt>
      <trkpt lat="45.25183" lon="5.41557">
        <ele>499</ele>
        <time>2018-04-21T13:15:02+02:00</time>
      </trkpt>
      <trkpt lat="45.25197" lon="5.41575">
        <ele>498</ele>
        <time>2018-04-21T13:15:18+02:00</time>
      </trkpt>
      <trkpt lat="45.25212" lon="5.41577">
        <ele>497</ele>
        <time>2018-04-21T13:15:21+02:00</time>
      </trkpt>
      <trkpt lat="45.25222" lon="5.41599">
        <ele>497</ele>
        <time>2018-04-21T13:15:35+02:00</time>
      </trkpt>
      <trkpt lat="45.25222" lon="5.41609">
        <ele>497</ele>
        <time>2018-04-21T13:15:42+02:00</time>
      </trkpt>
      <trkpt lat="45.2522" lon="5.41635">
        <ele>497</ele>
        <time>2018-04-21T13:16:16+02:00</time>
      </trkpt>
      <trkpt lat="45.25219" lon="5.41651">
        <ele>497</ele>
        <time>2018-04-21T13:17:25+02:00</time>
      </trkpt>
      <trkpt lat="45.25217" lon="5.41675">
        <ele>497</ele>
        <time>2018-04-21T13:17:58+02:00</time>
      </trkpt>
      <trkpt lat="45.25217" lon="5.41699">
        <ele>498</ele>
        <time>2018-04-21T13:18:14+02:00</time>
      </trkpt>
      <trkpt lat="45.25223" lon="5.41722">
        <ele>500</ele>
        <time>2018-04-21T13:20:16+02:00</time>
      </trkpt>
      <trkpt lat="45.25232" lon="5.41701">
        <ele>498</ele>
        <time>2018-04-21T13:20:33+02:00</time>
      </trkpt>
      <trkpt lat="45.25239" lon="5.41674">
        <ele>497</ele>
        <time>2018-04-21T13:20:50+02:00</time>
      </trkpt>
      <trkpt lat="45.2524" lon="5.41651">
        <ele>496</ele>
        <time>2018-04-21T13:21:08+02:00</time>
      </trkpt>
      <trkpt lat="45.2524" lon="5.41624">
        <ele>496</ele>
        <time>2018-04-21T13:21:26+02:00</time>
      </trkpt>
      <trkpt lat="45.25239" lon="5.41599">
        <ele>496</ele>
        <time>2018-04-21T13:21:42+02:00</time>
      </trkpt>
      <trkpt lat="45.25237" lon="5.41567">
        <ele>496</ele>
        <time>2018-04-21T13:22:02+02:00</time>
      </trkpt>
      <trkpt lat="45.25233" lon="5.4155">
        <ele>496</ele>
        <time>2018-04-21T13:22:18+02:00</time>
      </trkpt>
      <trkpt lat="45.2524" lon="5.41523">
        <ele>495</ele>
        <time>2018-04-21T13:22:38+02:00</time>
      </trkpt>
      <trkpt lat="45.25238" lon="5.41491">
        <ele>495</ele>
        <time>2018-04-21T13:22:55+02:00</time>
      </trkpt>
      <trkpt lat="45.25242" lon="5.41456">
        <ele>495</ele>
        <time>2018-04-21T13:23:13+02:00</time>
      </trkpt>
      <trkpt lat="45.25245" lon="5.41432">
        <ele>495</ele>
        <time>2018-04-21T13:23:34+02:00</time>
      </trkpt>
      <trkpt lat="45.25239" lon="5.41417">
        <ele>495</ele>
        <time>2018-04-21T13:23:51+02:00</time>
      </trkpt>
      <trkpt lat="45.25232" lon="5.41391">
        <ele>496</ele>
        <time>2018-04-21T13:24:08+02:00</time>
      </trkpt>
      <trkpt lat="45.25229" lon="5.41381">
        <ele>496</ele>
        <time>2018-04-21T13:24:14+02:00</time>
      </trkpt>
      <trkpt lat="45.25216" lon="5.41356">
        <ele>495</ele>
        <time>2018-04-21T13:24:28+02:00</time>
      </trkpt>
      <trkpt lat="45.25204" lon="5.41336">
        <ele>493</ele>
        <time>2018-04-21T13:24:43+02:00</time>
      </trkpt>
      <trkpt lat="45.25196" lon="5.41319">
        <ele>492</ele>
        <time>2018-04-21T13:24:58+02:00</time>
      </trkpt>
      <trkpt lat="45.25196" lon="5.41297">
        <ele>492</ele>
        <time>2018-04-21T13:25:12+02:00</time>
      </trkpt>
      <trkpt lat="45.25203" lon="5.41284">
        <ele>494</ele>
        <time>2018-04-21T13:25:26+02:00</time>
      </trkpt>
      <trkpt lat="45.25215" lon="5.41265">
        <ele>498</ele>
        <time>2018-04-21T13:25:41+02:00</time>
      </trkpt>
      <trkpt lat="45.25224" lon="5.41242">
        <ele>501</ele>
        <time>2018-04-21T13:25:59+02:00</time>
      </trkpt>
      <trkpt lat="45.25231" lon="5.41217">
        <ele>504</ele>
        <time>2018-04-21T13:26:15+02:00</time>
      </trkpt>
      <trkpt lat="45.25213" lon="5.41207">
        <ele>501</ele>
        <time>2018-04-21T13:26:30+02:00</time>
      </trkpt>
      <trkpt lat="45.25199" lon="5.41196">
        <ele>500</ele>
        <time>2018-04-21T13:26:44+02:00</time>
      </trkpt>
      <trkpt lat="45.25191" lon="5.4117">
        <ele>501</ele>
        <time>2018-04-21T13:27:04+02:00</time>
      </trkpt>
      <trkpt lat="45.25185" lon="5.4115">
        <ele>501</ele>
        <time>2018-04-21T13:27:20+02:00</time>
      </trkpt>
      <trkpt lat="45.25177" lon="5.4112">
        <ele>500</ele>
        <time>2018-04-21T13:27:39+02:00</time>
      </trkpt>
      <trkpt lat="45.25176" lon="5.41118">
        <ele>500</ele>
        <time>2018-04-21T13:27:41+02:00</time>
      </trkpt>
      <trkpt lat="45.25169" lon="5.41089">
        <ele>500</ele>
        <time>2018-04-21T13:28:00+02:00</time>
      </trkpt>
      <trkpt lat="45.25167" lon="5.41069">
        <ele>501</ele>
        <time>2018-04-21T13:28:42+02:00</time>
      </trkpt>
      <trkpt lat="45.25159" lon="5.41049">
        <ele>501</ele>
        <time>2018-04-21T13:28:56+02:00</time>
      </trkpt>
      <trkpt lat="45.25151" lon="5.41021">
        <ele>501</ele>
        <time>2018-04-21T13:29:13+02:00</time>
      </trkpt>
      <trkpt lat="45.25148" lon="5.41003">
        <ele>501</ele>
        <time>2018-04-21T13:29:26+02:00</time>
      </trkpt>
      <trkpt lat="45.25145" lon="5.40978">
        <ele>500</ele>
        <time>2018-04-21T13:29:44+02:00</time>
      </trkpt>
      <trkpt lat="45.25136" lon="5.40944">
        <ele>497</ele>
        <time>2018-04-21T13:30:03+02:00</time>
      </trkpt>
      <trkpt lat="45.2512" lon="5.40921">
        <ele>495</ele>
        <time>2018-04-21T13:30:20+02:00</time>
      </trkpt>
      <trkpt lat="45.25102" lon="5.40904">
        <ele>493</ele>
        <time>2018-04-21T13:30:37+02:00</time>
      </trkpt>
      <trkpt lat="45.25086" lon="5.40886">
        <ele>493</ele>
        <time>2018-04-21T13:30:54+02:00</time>
      </trkpt>
      <trkpt lat="45.25072" lon="5.40869">
        <ele>494</ele>
        <time>2018-04-21T13:31:10+02:00</time>
      </trkpt>
      <trkpt lat="45.2506" lon="5.4085">
        <ele>495</ele>
        <time>2018-04-21T13:31:24+02:00</time>
      </trkpt>
      <trkpt lat="45.25045" lon="5.40827">
        <ele>496</ele>
        <time>2018-04-21T13:31:42+02:00</time>
      </trkpt>
      <trkpt lat="45.2503" lon="5.40805">
        <ele>497</ele>
        <time>2018-04-21T13:32:00+02:00</time>
      </trkpt>
      <trkpt lat="45.25012" lon="5.40784">
        <ele>498</ele>
        <time>2018-04-21T13:32:20+02:00</time>
      </trkpt>
      <trkpt lat="45.25002" lon="5.40775">
        <ele>497</ele>
        <time>2018-04-21T13:33:01+02:00</time>
      </trkpt>
      <trkpt lat="45.24988" lon="5.40763">
        <ele>497</ele>
        <time>2018-04-21T13:33:16+02:00</time>
      </trkpt>
      <trkpt lat="45.24973" lon="5.40749">
        <ele>498</ele>
        <time>2018-04-21T13:33:32+02:00</time>
      </trkpt>
      <trkpt lat="45.24955" lon="5.40733">
        <ele>499</ele>
        <time>2018-04-21T13:33:52+02:00</time>
      </trkpt>
      <trkpt lat="45.24939" lon="5.40718">
        <ele>500</ele>
        <time>2018-04-21T13:34:10+02:00</time>
      </trkpt>
      <trkpt lat="45.24926" lon="5.40702">
        <ele>501</ele>
        <time>2018-04-21T13:34:26+02:00</time>
      </trkpt>
      <trkpt lat="45.24913" lon="5.40681">
        <ele>503</ele>
        <time>2018-04-21T13:35:29+02:00</time>
      </trkpt>
      <trkpt lat="45.24901" lon="5.4066">
        <ele>503</ele>
        <time>2018-04-21T13:35:45+02:00</time>
      </trkpt>
      <trkpt lat="45.24887" lon="5.40639">
        <ele>503</ele>
        <time>2018-04-21T13:36:02+02:00</time>
      </trkpt>
      <trkpt lat="45.24872" lon="5.40621">
        <ele>503</ele>
        <time>2018-04-21T13:36:26+02:00</time>
      </trkpt>
      <trkpt lat="45.2486" lon="5.40594">
        <ele>504</ele>
        <time>2018-04-21T13:36:45+02:00</time>
      </trkpt>
      <trkpt lat="45.24848" lon="5.40566">
        <ele>505</ele>
        <time>2018-04-21T13:37:03+02:00</time>
      </trkpt>
      <trkpt lat="45.24838" lon="5.40543">
        <ele>506</ele>
        <time>2018-04-21T13:37:20+02:00</time>
      </trkpt>
      <trkpt lat="45.24828" lon="5.40519">
        <ele>506</ele>
        <time>2018-04-21T13:37:37+02:00</time>
      </trkpt>
      <trkpt lat="45.24813" lon="5.40486">
        <ele>506</ele>
        <time>2018-04-21T13:37:59+02:00</time>
      </trkpt>
      <trkpt lat="45.24805" lon="5.40465">
        <ele>506</ele>
        <time>2018-04-21T13:38:13+02:00</time>
      </trkpt>
      <trkpt lat="45.24795" lon="5.40433">
        <ele>506</ele>
        <time>2018-04-21T13:38:33+02:00</time>
      </trkpt>
      <trkpt lat="45.24784" lon="5.40418">
        <ele>506</ele>
        <time>2018-04-21T13:38:47+02:00</time>
      </trkpt>
      <trkpt lat="45.24772" lon="5.4041">
        <ele>505</ele>
        <time>2018-04-21T13:39:01+02:00</time>
      </trkpt>
      <trkpt lat="45.24753" lon="5.40408">
        <ele>504</ele>
        <time>2018-04-21T13:39:17+02:00</time>
      </trkpt>
      <trkpt lat="45.24736" lon="5.4041">
        <ele>502</ele>
        <time>2018-04-21T13:39:32+02:00</time>
      </trkpt>
      <trkpt lat="45.24727" lon="5.40412">
        <ele>501</ele>
        <time>2018-04-21T13:39:39+02:00</time>
      </trkpt>
      <trkpt lat="45.24707" lon="5.40411">
        <ele>500</ele>
        <time>2018-04-21T13:39:56+02:00</time>
      </trkpt>
      <trkpt lat="45.24686" lon="5.40408">
        <ele>499</ele>
        <time>2018-04-21T13:40:15+02:00</time>
      </trkpt>
      <trkpt lat="45.24672" lon="5.40405">
        <ele>498</ele>
        <time>2018-04-21T13:40:29+02:00</time>
      </trkpt>
      <trkpt lat="45.24656" lon="5.40397">
        <ele>497</ele>
        <time>2018-04-21T13:40:45+02:00</time>
      </trkpt>
      <trkpt lat="45.24644" lon="5.40388">
        <ele>497</ele>
        <time>2018-04-21T13:41:22+02:00</time>
      </trkpt>
      <trkpt lat="45.24627" lon="5.40371">
        <ele>496</ele>
        <time>2018-04-21T13:41:40+02:00</time>
      </trkpt>
      <trkpt lat="45.24614" lon="5.40355">
        <ele>496</ele>
        <time>2018-04-21T13:41:56+02:00</time>
      </trkpt>
      <trkpt lat="45.2461" lon="5.40349">
        <ele>496</ele>
        <time>2018-04-21T13:42:01+02:00</time>
      </trkpt>
      <trkpt lat="45.24593" lon="5.4032">
        <ele>495</ele>
        <time>2018-04-21T13:42:21+02:00</time>
      </trkpt>
      <trkpt lat="45.24578" lon="5.403">
        <ele>495</ele>
        <time>2018-04-21T13:42:38+02:00</time>
      </trkpt>
      <trkpt lat="45.24566" lon="5.40295">
        <ele>495</ele>
        <time>2018-04-21T13:42:50+02:00</time>
      </trkpt>
      <trkpt lat="45.24552" lon="5.40295">
        <ele>494</ele>
        <time>2018-04-21T13:43:07+02:00</time>
      </trkpt>
      <trkpt lat="45.24536" lon="5.40287">
        <ele>495</ele>
        <time>2018-04-21T13:43:24+02:00</time>
      </trkpt>
      <trkpt lat="45.24523" lon="5.40283">
        <ele>495</ele>
        <time>2018-04-21T13:43:36+02:00</time>
      </trkpt>
      <trkpt lat="45.24506" lon="5.40271">
        <ele>496</ele>
        <time>2018-04-21T13:43:54+02:00</time>
      </trkpt>
      <trkpt lat="45.24491" lon="5.40259">
        <ele>497</ele>
        <time>2018-04-21T13:44:12+02:00</time>
      </trkpt>
      <trkpt lat="45.24479" lon="5.4025">
        <ele>498</ele>
        <time>2018-04-21T13:44:29+02:00</time>
      </trkpt>
      <trkpt lat="45.24466" lon="5.40237">
        <ele>499</ele>
        <time>2018-04-21T13:44:48+02:00</time>
      </trkpt>
      <trkpt lat="45.24451" lon="5.40219">
        <ele>500</ele>
        <time>2018-04-21T13:46:48+02:00</time>
      </trkpt>
      <trkpt lat="45.24444" lon="5.40211">
        <ele>501</ele>
        <time>2018-04-21T13:47:01+02:00</time>
      </trkpt>
      <trkpt lat="45.24428" lon="5.4019">
        <ele>504</ele>
        <time>2018-04-21T13:47:22+02:00</time>
      </trkpt>
      <trkpt lat="45.24421" lon="5.40177">
        <ele>506</ele>
        <time>2018-04-21T13:47:33+02:00</time>
      </trkpt>
      <trkpt lat="45.2441" lon="5.40151">
        <ele>508</ele>
        <time>2018-04-21T13:47:50+02:00</time>
      </trkpt>
      <trkpt lat="45.24399" lon="5.40125">
        <ele>510</ele>
        <time>2018-04-21T13:48:08+02:00</time>
      </trkpt>
      <trkpt lat="45.24386" lon="5.40105">
        <ele>512</ele>
        <time>2018-04-21T13:48:26+02:00</time>
      </trkpt>
      <trkpt lat="45.2437" lon="5.40085">
        <ele>515</ele>
        <time>2018-04-21T13:48:45+02:00</time>
      </trkpt>
      <trkpt lat="45.24356" lon="5.40073">
        <ele>518</ele>
        <time>2018-04-21T13:49:37+02:00</time>
      </trkpt>
      <trkpt lat="45.24341" lon="5.40049">
        <ele>522</ele>
        <time>2018-04-21T13:49:56+02:00</time>
      </trkpt>
      <trkpt lat="45.24328" lon="5.40034">
        <ele>525</ele>
        <time>2018-04-21T13:50:12+02:00</time>
      </trkpt>
      <trkpt lat="45.24312" lon="5.40016">
        <ele>526</ele>
        <time>2018-04-21T13:50:30+02:00</time>
      </trkpt>
      <trkpt lat="45.24298" lon="5.39999">
        <ele>527</ele>
        <time>2018-04-21T13:50:46+02:00</time>
      </trkpt>
      <trkpt lat="45.24285" lon="5.39982">
        <ele>527</ele>
        <time>2018-04-21T13:51:03+02:00</time>
      </trkpt>
      <trkpt lat="45.24273" lon="5.39974">
        <ele>527</ele>
        <time>2018-04-21T13:51:18+02:00</time>
      </trkpt>
      <trkpt lat="45.2426" lon="5.3996">
        <ele>528</ele>
        <time>2018-04-21T13:51:34+02:00</time>
      </trkpt>
      <trkpt lat="45.24237" lon="5.39939">
        <ele>528</ele>
        <time>2018-04-21T13:52:26+02:00</time>
      </trkpt>
      <trkpt lat="45.24225" lon="5.3993">
        <ele>527</ele>
        <time>2018-04-21T13:52:41+02:00</time>
      </trkpt>
      <trkpt lat="45.2421" lon="5.39911">
        <ele>528</ele>
        <time>2018-04-21T13:52:59+02:00</time>
      </trkpt>
      <trkpt lat="45.24195" lon="5.39891">
        <ele>529</ele>
        <time>2018-04-21T13:53:16+02:00</time>
      </trkpt>
      <trkpt lat="45.24185" lon="5.39877">
        <ele>530</ele>
        <time>2018-04-21T13:53:28+02:00</time>
      </trkpt>
      <trkpt lat="45.24174" lon="5.39855">
        <ele>532</ele>
        <time>2018-04-21T13:53:44+02:00</time>
      </trkpt>
      <trkpt lat="45.24163" lon="5.39834">
        <ele>534</ele>
        <time>2018-04-21T13:54:00+02:00</time>
      </trkpt>
      <trkpt lat="45.24154" lon="5.39809">
        <ele>534</ele>
        <time>2018-04-21T13:54:17+02:00</time>
      </trkpt>
      <trkpt lat="45.24147" lon="5.39791">
        <ele>534</ele>
        <time>2018-04-21T13:54:33+02:00</time>
      </trkpt>
      <trkpt lat="45.2414" lon="5.39772">
        <ele>534</ele>
        <time>2018-04-21T13:54:49+02:00</time>
      </trkpt>
      <trkpt lat="45.2413" lon="5.39747">
        <ele>533</ele>
        <time>2018-04-21T13:55:07+02:00</time>
      </trkpt>
      <trkpt lat="45.2412" lon="5.39725">
        <ele>533</ele>
        <time>2018-04-21T13:55:22+02:00</time>
      </trkpt>
      <trkpt lat="45.2411" lon="5.39704">
        <ele>532</ele>
        <time>2018-04-21T13:55:58+02:00</time>
      </trkpt>
      <trkpt lat="45.24103" lon="5.39687">
        <ele>532</ele>
        <time>2018-04-21T13:56:14+02:00</time>
      </trkpt>
      <trkpt lat="45.24089" lon="5.39656">
        <ele>532</ele>
        <time>2018-04-21T13:56:36+02:00</time>
      </trkpt>
      <trkpt lat="45.24073" lon="5.39634">
        <ele>530</ele>
        <time>2018-04-21T13:57:08+02:00</time>
      </trkpt>
      <trkpt lat="45.2407" lon="5.39628">
        <ele>529</ele>
        <time>2018-04-21T13:57:14+02:00</time>
      </trkpt>
      <trkpt lat="45.24057" lon="5.39601">
        <ele>528</ele>
        <time>2018-04-21T13:57:33+02:00</time>
      </trkpt>
      <trkpt lat="45.2405" lon="5.39574">
        <ele>527</ele>
        <time>2018-04-21T13:57:49+02:00</time>
      </trkpt>
      <trkpt lat="45.24045" lon="5.39554">
        <ele>526</ele>
        <time>2018-04-21T13:58:02+02:00</time>
      </trkpt>
      <trkpt lat="45.24043" lon="5.39531">
        <ele>525</ele>
        <time>2018-04-21T13:58:20+02:00</time>
      </trkpt>
      <trkpt lat="45.24041" lon="5.3951">
        <ele>524</ele>
        <time>2018-04-21T13:58:36+02:00</time>
      </trkpt>
      <trkpt lat="45.2404" lon="5.39491">
        <ele>522</ele>
        <time>2018-04-21T13:58:51+02:00</time>
      </trkpt>
      <trkpt lat="45.24038" lon="5.39459">
        <ele>516</ele>
        <time>2018-04-21T13:59:10+02:00</time>
      </trkpt>
      <trkpt lat="45.2404" lon="5.39435">
        <ele>512</ele>
        <time>2018-04-21T13:59:27+02:00</time>
      </trkpt>
      <trkpt lat="45.24047" lon="5.39414">
        <ele>510</ele>
        <time>2018-04-21T14:02:30+02:00</time>
      </trkpt>
      <trkpt lat="45.2405" lon="5.39402">
        <ele>508</ele>
        <time>2018-04-21T14:02:44+02:00</time>
      </trkpt>
      <trkpt lat="45.24059" lon="5.39373">
        <ele>504</ele>
        <time>2018-04-21T14:03:07+02:00</time>
      </trkpt>
      <trkpt lat="45.24062" lon="5.3935">
        <ele>500</ele>
        <time>2018-04-21T14:03:24+02:00</time>
      </trkpt>
      <trkpt lat="45.24064" lon="5.39318">
        <ele>496</ele>
        <time>2018-04-21T14:03:46+02:00</time>
      </trkpt>
      <trkpt lat="45.24061" lon="5.3929">
        <ele>493</ele>
        <time>2018-04-21T14:04:05+02:00</time>
      </trkpt>
      <trkpt lat="45.24052" lon="5.3927">
        <ele>491</ele>
        <time>2018-04-21T14:04:22+02:00</time>
      </trkpt>
      <trkpt lat="45.24046" lon="5.3925">
        <ele>488</ele>
        <time>2018-04-21T14:04:40+02:00</time>
      </trkpt>
      <trkpt lat="45.24042" lon="5.39226">
        <ele>486</ele>
        <time>2018-04-21T14:04:55+02:00</time>
      </trkpt>
      <trkpt lat="45.24037" lon="5.39201">
        <ele>484</ele>
        <time>2018-04-21T14:05:13+02:00</time>
      </trkpt>
      <trkpt lat="45.24033" lon="5.3918">
        <ele>483</ele>
        <time>2018-04-21T14:05:28+02:00</time>
      </trkpt>
      <trkpt lat="45.24027" lon="5.39166">
        <ele>482</ele>
        <time>2018-04-21T14:05:45+02:00</time>
      </trkpt>
      <trkpt lat="45.2402" lon="5.39175">
        <ele>482</ele>
        <time>2018-04-21T14:06:16+02:00</time>
      </trkpt>
      <trkpt lat="45.23997" lon="5.39192">
        <ele>482</ele>
        <time>2018-04-21T14:06:33+02:00</time>
      </trkpt>
      <trkpt lat="45.23982" lon="5.39205">
        <ele>481</ele>
        <time>2018-04-21T14:06:47+02:00</time>
      </trkpt>
      <trkpt lat="45.23965" lon="5.39222">
        <ele>480</ele>
        <time>2018-04-21T14:07:04+02:00</time>
      </trkpt>
      <trkpt lat="45.23951" lon="5.3924">
        <ele>480</ele>
        <time>2018-04-21T14:07:23+02:00</time>
      </trkpt>
      <trkpt lat="45.23944" lon="5.39261">
        <ele>480</ele>
        <time>2018-04-21T14:07:37+02:00</time>
      </trkpt>
      <trkpt lat="45.23934" lon="5.39279">
        <ele>480</ele>
        <time>2018-04-21T14:07:53+02:00</time>
      </trkpt>
      <trkpt lat="45.23927" lon="5.393">
        <ele>480</ele>
        <time>2018-04-21T14:08:08+02:00</time>
      </trkpt>
      <trkpt lat="45.23923" lon="5.39327">
        <ele>480</ele>
        <time>2018-04-21T14:08:26+02:00</time>
      </trkpt>
      <trkpt lat="45.23916" lon="5.39353">
        <ele>480</ele>
        <time>2018-04-21T14:08:43+02:00</time>
      </trkpt>
      <trkpt lat="45.23899" lon="5.39366">
        <ele>479</ele>
        <time>2018-04-21T14:09:01+02:00</time>
      </trkpt>
      <trkpt lat="45.23881" lon="5.39369">
        <ele>477</ele>
        <time>2018-04-21T14:09:17+02:00</time>
      </trkpt>
      <trkpt lat="45.23863" lon="5.39375">
        <ele>475</ele>
        <time>2018-04-21T14:09:33+02:00</time>
      </trkpt>
      <trkpt lat="45.23846" lon="5.39385">
        <ele>473</ele>
        <time>2018-04-21T14:09:49+02:00</time>
      </trkpt>
      <trkpt lat="45.23828" lon="5.39393">
        <ele>471</ele>
        <time>2018-04-21T14:10:06+02:00</time>
      </trkpt>
      <trkpt lat="45.23812" lon="5.39395">
        <ele>469</ele>
        <time>2018-04-21T14:10:21+02:00</time>
      </trkpt>
      <trkpt lat="45.23799" lon="5.39395">
        <ele>468</ele>
        <time>2018-04-21T14:10:30+02:00</time>
      </trkpt>
      <trkpt lat="45.23778" lon="5.39388">
        <ele>466</ele>
        <time>2018-04-21T14:10:45+02:00</time>
      </trkpt>
      <trkpt lat="45.23757" lon="5.39388">
        <ele>463</ele>
        <time>2018-04-21T14:11:02+02:00</time>
      </trkpt>
      <trkpt lat="45.23741" lon="5.39392">
        <ele>461</ele>
        <time>2018-04-21T14:11:16+02:00</time>
      </trkpt>
      <trkpt lat="45.23729" lon="5.39407">
        <ele>460</ele>
        <time>2018-04-21T14:11:33+02:00</time>
      </trkpt>
      <trkpt lat="45.23717" lon="5.39423">
        <ele>458</ele>
        <time>2018-04-21T14:11:49+02:00</time>
      </trkpt>
      <trkpt lat="45.23707" lon="5.39441">
        <ele>457</ele>
        <time>2018-04-21T14:12:06+02:00</time>
      </trkpt>
      <trkpt lat="45.23695" lon="5.3946">
        <ele>456</ele>
        <time>2018-04-21T14:12:21+02:00</time>
      </trkpt>
      <trkpt lat="45.23682" lon="5.3948">
        <ele>455</ele>
        <time>2018-04-21T14:12:36+02:00</time>
      </trkpt>
      <trkpt lat="45.23677" lon="5.39497">
        <ele>454</ele>
        <time>2018-04-21T14:12:52+02:00</time>
      </trkpt>
      <trkpt lat="45.23665" lon="5.39518">
        <ele>453</ele>
        <time>2018-04-21T14:13:08+02:00</time>
      </trkpt>
      <trkpt lat="45.2365" lon="5.3954">
        <ele>453</ele>
        <time>2018-04-21T14:13:23+02:00</time>
      </trkpt>
      <trkpt lat="45.23634" lon="5.39556">
        <ele>451</ele>
        <time>2018-04-21T14:13:48+02:00</time>
      </trkpt>
      <trkpt lat="45.23609" lon="5.3958">
        <ele>447</ele>
        <time>2018-04-21T14:14:04+02:00</time>
      </trkpt>
      <trkpt lat="45.23602" lon="5.39584">
        <ele>446</ele>
        <time>2018-04-21T14:14:19+02:00</time>
      </trkpt>
      <trkpt lat="45.23587" lon="5.39595">
        <ele>443</ele>
        <time>2018-04-21T14:14:35+02:00</time>
      </trkpt>
      <trkpt lat="45.23568" lon="5.3961">
        <ele>441</ele>
        <time>2018-04-21T14:15:12+02:00</time>
      </trkpt>
      <trkpt lat="45.23564" lon="5.39613">
        <ele>441</ele>
        <time>2018-04-21T14:15:20+02:00</time>
      </trkpt>
      <trkpt lat="45.2354" lon="5.39621">
        <ele>439</ele>
        <time>2018-04-21T14:15:38+02:00</time>
      </trkpt>
      <trkpt lat="45.23522" lon="5.39623">
        <ele>438</ele>
        <time>2018-04-21T14:15:55+02:00</time>
      </trkpt>
      <trkpt lat="45.23501" lon="5.39625">
        <ele>436</ele>
        <time>2018-04-21T14:16:11+02:00</time>
      </trkpt>
      <trkpt lat="45.23481" lon="5.39624">
        <ele>436</ele>
        <time>2018-04-21T14:16:27+02:00</time>
      </trkpt>
      <trkpt lat="45.23457" lon="5.39629">
        <ele>435</ele>
        <time>2018-04-21T14:16:46+02:00</time>
      </trkpt>
      <trkpt lat="45.23443" lon="5.39642">
        <ele>434</ele>
        <time>2018-04-21T14:17:23+02:00</time>
      </trkpt>
      <trkpt lat="45.23434" lon="5.39655">
        <ele>433</ele>
        <time>2018-04-21T14:17:41+02:00</time>
      </trkpt>
      <trkpt lat="45.23417" lon="5.39676">
        <ele>432</ele>
        <time>2018-04-21T14:18:00+02:00</time>
      </trkpt>
      <trkpt lat="45.23398" lon="5.39702">
        <ele>430</ele>
        <time>2018-04-21T14:18:20+02:00</time>
      </trkpt>
      <trkpt lat="45.23382" lon="5.39718">
        <ele>428</ele>
        <time>2018-04-21T14:18:37+02:00</time>
      </trkpt>
      <trkpt lat="45.23366" lon="5.39729">
        <ele>427</ele>
        <time>2018-04-21T14:18:53+02:00</time>
      </trkpt>
      <trkpt lat="45.23344" lon="5.3974">
        <ele>426</ele>
        <time>2018-04-21T14:19:12+02:00</time>
      </trkpt>
      <trkpt lat="45.23328" lon="5.3975">
        <ele>425</ele>
        <time>2018-04-21T14:19:28+02:00</time>
      </trkpt>
      <trkpt lat="45.23312" lon="5.39759">
        <ele>423</ele>
        <time>2018-04-21T14:19:43+02:00</time>
      </trkpt>
      <trkpt lat="45.23295" lon="5.39767">
        <ele>422</ele>
        <time>2018-04-21T14:19:58+02:00</time>
      </trkpt>
      <trkpt lat="45.23281" lon="5.39781">
        <ele>421</ele>
        <time>2018-04-21T14:20:12+02:00</time>
      </trkpt>
      <trkpt lat="45.23267" lon="5.39797">
        <ele>420</ele>
        <time>2018-04-21T14:20:27+02:00</time>
      </trkpt>
      <trkpt lat="45.23252" lon="5.39815">
        <ele>419</ele>
        <time>2018-04-21T14:20:43+02:00</time>
      </trkpt>
      <trkpt lat="45.23237" lon="5.39834">
        <ele>418</ele>
        <time>2018-04-21T14:21:01+02:00</time>
      </trkpt>
      <trkpt lat="45.23233" lon="5.39862">
        <ele>415</ele>
        <time>2018-04-21T14:21:38+02:00</time>
      </trkpt>
      <trkpt lat="45.23237" lon="5.39882">
        <ele>414</ele>
        <time>2018-04-21T14:21:51+02:00</time>
      </trkpt>
      <trkpt lat="45.23249" lon="5.39906">
        <ele>412</ele>
        <time>2018-04-21T14:22:08+02:00</time>
      </trkpt>
      <trkpt lat="45.23263" lon="5.39929">
        <ele>411</ele>
        <time>2018-04-21T14:22:25+02:00</time>
      </trkpt>
      <trkpt lat="45.23279" lon="5.3995">
        <ele>410</ele>
        <time>2018-04-21T14:22:44+02:00</time>
      </trkpt>
      <trkpt lat="45.23291" lon="5.39972">
        <ele>409</ele>
        <time>2018-04-21T14:26:51+02:00</time>
      </trkpt>
      <trkpt lat="45.23307" lon="5.39986">
        <ele>409</ele>
        <time>2018-04-21T14:27:07+02:00</time>
      </trkpt>
      <trkpt lat="45.23324" lon="5.40009">
        <ele>407</ele>
        <time>2018-04-21T14:27:25+02:00</time>
      </trkpt>
      <trkpt lat="45.23341" lon="5.40023">
        <ele>405</ele>
        <time>2018-04-21T14:27:41+02:00</time>
      </trkpt>
      <trkpt lat="45.23351" lon="5.40039">
        <ele>401</ele>
        <time>2018-04-21T14:28:10+02:00</time>
      </trkpt>
      <trkpt lat="45.23353" lon="5.40071">
        <ele>395</ele>
        <time>2018-04-21T14:28:39+02:00</time>
      </trkpt>
      <trkpt lat="45.23344" lon="5.40093">
        <ele>391</ele>
        <time>2018-04-21T14:28:56+02:00</time>
      </trkpt>
      <trkpt lat="45.23333" lon="5.4011">
        <ele>389</ele>
        <time>2018-04-21T14:29:13+02:00</time>
      </trkpt>
      <trkpt lat="45.23321" lon="5.4013">
        <ele>383</ele>
        <time>2018-04-21T14:29:31+02:00</time>
      </trkpt>
      <trkpt lat="45.23316" lon="5.40143">
        <ele>380</ele>
        <time>2018-04-21T14:29:47+02:00</time>
      </trkpt>
      <trkpt lat="45.23307" lon="5.40159">
        <ele>375</ele>
        <time>2018-04-21T14:30:00+02:00</time>
      </trkpt>
      <trkpt lat="45.23315" lon="5.4018">
        <ele>371</ele>
        <time>2018-04-21T14:30:33+02:00</time>
      </trkpt>
      <trkpt lat="45.23315" lon="5.40208">
        <ele>365</ele>
        <time>2018-04-21T14:31:20+02:00</time>
      </trkpt>
      <trkpt lat="45.23325" lon="5.4023">
        <ele>361</ele>
        <time>2018-04-21T14:33:37+02:00</time>
      </trkpt>
      <trkpt lat="45.23317" lon="5.40245">
        <ele>357</ele>
        <time>2018-04-21T14:34:08+02:00</time>
      </trkpt>
      <trkpt lat="45.23301" lon="5.40266">
        <ele>355</ele>
        <time>2018-04-21T14:34:43+02:00</time>
      </trkpt>
      <trkpt lat="45.23289" lon="5.40273">
        <ele>355</ele>
        <time>2018-04-21T14:35:00+02:00</time>
      </trkpt>
      <trkpt lat="45.2327" lon="5.40287">
        <ele>353</ele>
        <time>2018-04-21T14:35:16+02:00</time>
      </trkpt>
      <trkpt lat="45.23253" lon="5.40296">
        <ele>352</ele>
        <time>2018-04-21T14:35:32+02:00</time>
      </trkpt>
      <trkpt lat="45.23242" lon="5.40305">
        <ele>350</ele>
        <time>2018-04-21T14:35:48+02:00</time>
      </trkpt>
      <trkpt lat="45.23231" lon="5.4033">
        <ele>346</ele>
        <time>2018-04-21T14:36:10+02:00</time>
      </trkpt>
      <trkpt lat="45.23232" lon="5.40354">
        <ele>345</ele>
        <time>2018-04-21T14:36:24+02:00</time>
      </trkpt>
      <trkpt lat="45.23236" lon="5.40365">
        <ele>345</ele>
        <time>2018-04-21T14:36:33+02:00</time>
      </trkpt>
      <trkpt lat="45.23255" lon="5.40355">
        <ele>347</ele>
        <time>2018-04-21T14:36:50+02:00</time>
      </trkpt>
      <trkpt lat="45.23274" lon="5.40343">
        <ele>348</ele>
        <time>2018-04-21T14:37:08+02:00</time>
      </trkpt>
      <trkpt lat="45.23296" lon="5.40335">
        <ele>349</ele>
        <time>2018-04-21T14:37:25+02:00</time>
      </trkpt>
      <trkpt lat="45.23315" lon="5.40327">
        <ele>350</ele>
        <time>2018-04-21T14:37:43+02:00</time>
      </trkpt>
      <trkpt lat="45.23333" lon="5.40323">
        <ele>351</ele>
        <time>2018-04-21T14:38:00+02:00</time>
      </trkpt>
      <trkpt lat="45.23356" lon="5.40318">
        <ele>358</ele>
        <time>2018-04-21T14:38:18+02:00</time>
      </trkpt>
      <trkpt lat="45.23368" lon="5.40309">
        <ele>361</ele>
        <time>2018-04-21T14:38:32+02:00</time>
      </trkpt>
      <trkpt lat="45.2338" lon="5.403">
        <ele>364</ele>
        <time>2018-04-21T14:38:41+02:00</time>
      </trkpt>
      <trkpt lat="45.23387" lon="5.40281">
        <ele>365</ele>
        <time>2018-04-21T14:38:56+02:00</time>
      </trkpt>
      <trkpt lat="45.23394" lon="5.40259">
        <ele>365</ele>
        <time>2018-04-21T14:39:12+02:00</time>
      </trkpt>
      <trkpt lat="45.23397" lon="5.40246">
        <ele>364</ele>
        <time>2018-04-21T14:39:22+02:00</time>
      </trkpt>
      <trkpt lat="45.23418" lon="5.40225">
        <ele>365</ele>
        <time>2018-04-21T14:39:39+02:00</time>
      </trkpt>
      <trkpt lat="45.23435" lon="5.40208">
        <ele>365</ele>
        <time>2018-04-21T14:40:30+02:00</time>
      </trkpt>
      <trkpt lat="45.23454" lon="5.40196">
        <ele>365</ele>
        <time>2018-04-21T14:40:48+02:00</time>
      </trkpt>
      <trkpt lat="45.23474" lon="5.40188">
        <ele>366</ele>
        <time>2018-04-21T14:41:06+02:00</time>
      </trkpt>
      <trkpt lat="45.23494" lon="5.40182">
        <ele>366</ele>
        <time>2018-04-21T14:41:25+02:00</time>
      </trkpt>
      <trkpt lat="45.23515" lon="5.40184">
        <ele>367</ele>
        <time>2018-04-21T14:41:42+02:00</time>
      </trkpt>
      <trkpt lat="45.23503" lon="5.40207">
        <ele>373</ele>
        <time>2018-04-21T14:42:57+02:00</time>
      </trkpt>
      <trkpt lat="45.23486" lon="5.40224">
        <ele>375</ele>
        <time>2018-04-21T14:43:57+02:00</time>
      </trkpt>
      <trkpt lat="45.23501" lon="5.40241">
        <ele>382</ele>
        <time>2018-04-21T14:45:34+02:00</time>
      </trkpt>
      <trkpt lat="45.2352" lon="5.4025">
        <ele>385</ele>
        <time>2018-04-21T14:46:10+02:00</time>
      </trkpt>
      <trkpt lat="45.23521" lon="5.40275">
        <ele>392</ele>
        <time>2018-04-21T14:47:57+02:00</time>
      </trkpt>
      <trkpt lat="45.23501" lon="5.40285">
        <ele>394</ele>
        <time>2018-04-21T14:48:52+02:00</time>
      </trkpt>
      <trkpt lat="45.23489" lon="5.40288">
        <ele>391</ele>
        <time>2018-04-21T14:49:04+02:00</time>
      </trkpt>
      <trkpt lat="45.23477" lon="5.40295">
        <ele>390</ele>
        <time>2018-04-21T14:49:18+02:00</time>
      </trkpt>
      <trkpt lat="45.23461" lon="5.40314">
        <ele>389</ele>
        <time>2018-04-21T14:49:39+02:00</time>
      </trkpt>
      <trkpt lat="45.23469" lon="5.40339">
        <ele>396</ele>
        <time>2018-04-21T14:51:03+02:00</time>
      </trkpt>
      <trkpt lat="45.23478" lon="5.40366">
        <ele>399</ele>
        <time>2018-04-21T14:52:20+02:00</time>
      </trkpt>
      <trkpt lat="45.23486" lon="5.40365">
        <ele>401</ele>
        <time>2018-04-21T14:52:35+02:00</time>
      </trkpt>
      <trkpt lat="45.23498" lon="5.4037">
        <ele>405</ele>
        <time>2018-04-21T14:52:56+02:00</time>
      </trkpt>
      <trkpt lat="45.2352" lon="5.40376">
        <ele>407</ele>
        <time>2018-04-21T14:53:25+02:00</time>
      </trkpt>
      <trkpt lat="45.23536" lon="5.40381">
        <ele>409</ele>
        <time>2018-04-21T14:53:41+02:00</time>
      </trkpt>
      <trkpt lat="45.23559" lon="5.40388">
        <ele>411</ele>
        <time>2018-04-21T14:54:01+02:00</time>
      </trkpt>
      <trkpt lat="45.23578" lon="5.40392">
        <ele>414</ele>
        <time>2018-04-21T14:54:18+02:00</time>
      </trkpt>
      <trkpt lat="45.23594" lon="5.40396">
        <ele>415</ele>
        <time>2018-04-21T14:54:35+02:00</time>
      </trkpt>
      <trkpt lat="45.23609" lon="5.40401">
        <ele>415</ele>
        <time>2018-04-21T14:54:49+02:00</time>
      </trkpt>
      <trkpt lat="45.23621" lon="5.40402">
        <ele>416</ele>
        <time>2018-04-21T14:55:08+02:00</time>
      </trkpt>
      <trkpt lat="45.23638" lon="5.4041">
        <ele>417</ele>
        <time>2018-04-21T14:55:26+02:00</time>
      </trkpt>
      <trkpt lat="45.23649" lon="5.40411">
        <ele>417</ele>
        <time>2018-04-21T14:55:40+02:00</time>
      </trkpt>
      <trkpt lat="45.23674" lon="5.40433">
        <ele>417</ele>
        <time>2018-04-21T15:02:05+02:00</time>
      </trkpt>
      <trkpt lat="45.23811" lon="5.40544">
        <ele>418</ele>
        <time>2020-08-30T20:23:41+02:00</time>
      </trkpt>
      <trkpt lat="45.23767" lon="5.40631">
        <ele>419</ele>
        <time>2020-08-30T20:23:46+02:00</time>
      </trkpt>
      <trkpt lat="45.23787" lon="5.40652">
        <ele>419</ele>
        <time>2018-04-21T15:11:00+02:00</time>
      </trkpt>
    </trkseg>
  </trk>
</gpx>